<?xml version="1.0" encoding="UTF-8" standalone="no" ?>
<gpx xmlns="http://www.topografix.com/GPX/1/1" xmlns:xsi="http://www.w3.org/2001/XMLSchema-instance" xsi:schemaLocation="http://www.topografix.com/GPX/1/1 http://www.topografix.com/GPX/1/1/gpx.xsd" version="1.1" creator="VisuGPX - https://www.visugpx.com">
  <metadata>
    <name>Saint Pierre de Chartreuse</name>
    <desc><![CDATA[&nbsp;]]></desc>
  </metadata>
  <trk>
    <name><![CDATA[St Pierre de Chartreuse]]></name>
    <desc><![CDATA[Discovery "Sentier du Grand Logis" from Raidlight base. Sunny/cloudy. Asics Tioga2.
Strenuous workout but good shape. Difficult hill at Trail Stadium.]]></desc>
    <trkseg>
      <trkpt lat="45.34136" lon="5.8171">
        <ele>896</ele>
      </trkpt>
      <trkpt lat="45.34136" lon="5.81697">
        <ele>890</ele>
      </trkpt>
      <trkpt lat="45.34161" lon="5.81631">
        <ele>890</ele>
      </trkpt>
      <trkpt lat="45.34155" lon="5.81622">
        <ele>890</ele>
      </trkpt>
      <trkpt lat="45.34144" lon="5.81615">
        <ele>890</ele>
      </trkpt>
      <trkpt lat="45.34141" lon="5.81617">
        <ele>890</ele>
      </trkpt>
      <trkpt lat="45.34135" lon="5.81612">
        <ele>890</ele>
      </trkpt>
      <trkpt lat="45.34133" lon="5.81606">
        <ele>890</ele>
      </trkpt>
      <trkpt lat="45.34131" lon="5.81601">
        <ele>890</ele>
      </trkpt>
      <trkpt lat="45.34131" lon="5.81604">
        <ele>890</ele>
      </trkpt>
      <trkpt lat="45.34131" lon="5.81613">
        <ele>890</ele>
      </trkpt>
      <trkpt lat="45.34126" lon="5.8163">
        <ele>890</ele>
      </trkpt>
      <trkpt lat="45.34119" lon="5.81636">
        <ele>866</ele>
      </trkpt>
      <trkpt lat="45.34107" lon="5.81647">
        <ele>866</ele>
      </trkpt>
      <trkpt lat="45.34099" lon="5.81651">
        <ele>866</ele>
      </trkpt>
      <trkpt lat="45.34092" lon="5.8166">
        <ele>866</ele>
      </trkpt>
      <trkpt lat="45.34079" lon="5.81681">
        <ele>866</ele>
      </trkpt>
      <trkpt lat="45.34073" lon="5.81684">
        <ele>866</ele>
        <time>2011-06-11T15:50:01</time>
      </trkpt>
      <trkpt lat="45.3407" lon="5.81688">
        <ele>866</ele>
        <time>2011-06-11T15:50:05</time>
      </trkpt>
      <trkpt lat="45.34063" lon="5.81693">
        <ele>866</ele>
        <time>2011-06-11T15:50:11</time>
      </trkpt>
      <trkpt lat="45.34054" lon="5.81695">
        <ele>866</ele>
        <time>2011-06-11T15:50:16</time>
      </trkpt>
      <trkpt lat="45.34049" lon="5.81697">
        <ele>866</ele>
        <time>2011-06-11T15:50:21</time>
      </trkpt>
      <trkpt lat="45.34047" lon="5.81697">
        <ele>866</ele>
        <time>2011-06-11T15:50:23</time>
      </trkpt>
      <trkpt lat="45.34043" lon="5.81697">
        <ele>866</ele>
        <time>2011-06-11T15:50:26</time>
      </trkpt>
      <trkpt lat="45.34043" lon="5.81686">
        <ele>866</ele>
        <time>2011-06-11T15:50:32</time>
      </trkpt>
      <trkpt lat="45.34043" lon="5.81684">
        <ele>866</ele>
        <time>2011-06-11T15:50:33</time>
      </trkpt>
      <trkpt lat="45.34042" lon="5.81673">
        <ele>866</ele>
        <time>2011-06-11T15:50:38</time>
      </trkpt>
      <trkpt lat="45.34039" lon="5.81665">
        <ele>842</ele>
        <time>2011-06-11T15:50:41</time>
      </trkpt>
      <trkpt lat="45.34038" lon="5.81653">
        <ele>842</ele>
        <time>2011-06-11T15:50:47</time>
      </trkpt>
      <trkpt lat="45.34037" lon="5.81642">
        <ele>842</ele>
        <time>2011-06-11T15:50:53</time>
      </trkpt>
      <trkpt lat="45.34033" lon="5.81639">
        <ele>842</ele>
        <time>2011-06-11T15:50:57</time>
      </trkpt>
      <trkpt lat="45.34027" lon="5.81635">
        <ele>842</ele>
        <time>2011-06-11T15:51:02</time>
      </trkpt>
      <trkpt lat="45.34026" lon="5.81637">
        <ele>842</ele>
        <time>2011-06-11T15:51:04</time>
      </trkpt>
      <trkpt lat="45.3402" lon="5.81639">
        <ele>842</ele>
        <time>2011-06-11T15:51:10</time>
      </trkpt>
      <trkpt lat="45.34014" lon="5.81642">
        <ele>842</ele>
        <time>2011-06-11T15:51:14</time>
      </trkpt>
      <trkpt lat="45.34008" lon="5.8164">
        <ele>842</ele>
        <time>2011-06-11T15:51:20</time>
      </trkpt>
      <trkpt lat="45.34003" lon="5.81641">
        <ele>842</ele>
        <time>2011-06-11T15:51:25</time>
      </trkpt>
      <trkpt lat="45.34002" lon="5.8164">
        <ele>842</ele>
        <time>2011-06-11T15:51:30</time>
      </trkpt>
      <trkpt lat="45.33995" lon="5.81649">
        <ele>842</ele>
        <time>2011-06-11T15:51:35</time>
      </trkpt>
      <trkpt lat="45.33984" lon="5.81654">
        <ele>842</ele>
        <time>2011-06-11T15:51:40</time>
      </trkpt>
      <trkpt lat="45.33972" lon="5.81651">
        <ele>842</ele>
        <time>2011-06-11T15:51:46</time>
      </trkpt>
      <trkpt lat="45.33973" lon="5.81639">
        <ele>842</ele>
        <time>2011-06-11T15:51:51</time>
      </trkpt>
      <trkpt lat="45.33978" lon="5.81623">
        <ele>841</ele>
        <time>2011-06-11T15:51:57</time>
      </trkpt>
      <trkpt lat="45.33983" lon="5.81605">
        <ele>841</ele>
        <time>2011-06-11T15:52:01</time>
      </trkpt>
      <trkpt lat="45.33985" lon="5.81587">
        <ele>841</ele>
        <time>2011-06-11T15:52:07</time>
      </trkpt>
      <trkpt lat="45.33986" lon="5.81581">
        <ele>841</ele>
        <time>2011-06-11T15:52:09</time>
      </trkpt>
      <trkpt lat="45.33985" lon="5.81569">
        <ele>841</ele>
        <time>2011-06-11T15:52:14</time>
      </trkpt>
      <trkpt lat="45.33981" lon="5.8157">
        <ele>841</ele>
        <time>2011-06-11T15:52:18</time>
      </trkpt>
      <trkpt lat="45.33977" lon="5.81558">
        <ele>841</ele>
        <time>2011-06-11T15:52:23</time>
      </trkpt>
      <trkpt lat="45.33974" lon="5.81551">
        <ele>841</ele>
        <time>2011-06-11T15:52:25</time>
      </trkpt>
      <trkpt lat="45.33966" lon="5.81535">
        <ele>838</ele>
        <time>2011-06-11T15:52:31</time>
      </trkpt>
      <trkpt lat="45.33957" lon="5.81526">
        <ele>870</ele>
        <time>2011-06-11T15:52:36</time>
      </trkpt>
      <trkpt lat="45.33952" lon="5.81514">
        <ele>870</ele>
        <time>2011-06-11T15:52:40</time>
      </trkpt>
      <trkpt lat="45.33951" lon="5.81509">
        <ele>870</ele>
        <time>2011-06-11T15:52:41</time>
      </trkpt>
      <trkpt lat="45.33952" lon="5.81492">
        <ele>870</ele>
        <time>2011-06-11T15:52:47</time>
      </trkpt>
      <trkpt lat="45.33952" lon="5.81492">
        <ele>870</ele>
        <time>2011-06-11T15:52:48</time>
      </trkpt>
      <trkpt lat="45.33947" lon="5.81483">
        <ele>870</ele>
        <time>2011-06-11T15:52:52</time>
      </trkpt>
      <trkpt lat="45.3394" lon="5.81481">
        <ele>870</ele>
        <time>2011-06-11T15:52:59</time>
      </trkpt>
      <trkpt lat="45.33941" lon="5.81477">
        <ele>870</ele>
        <time>2011-06-11T15:53:01</time>
      </trkpt>
      <trkpt lat="45.33939" lon="5.81465">
        <ele>870</ele>
        <time>2011-06-11T15:53:07</time>
      </trkpt>
      <trkpt lat="45.33942" lon="5.81452">
        <ele>869</ele>
        <time>2011-06-11T15:53:11</time>
      </trkpt>
      <trkpt lat="45.33946" lon="5.81436">
        <ele>869</ele>
        <time>2011-06-11T15:53:16</time>
      </trkpt>
      <trkpt lat="45.33947" lon="5.81427">
        <ele>869</ele>
        <time>2011-06-11T15:53:19</time>
      </trkpt>
      <trkpt lat="45.33953" lon="5.81418">
        <ele>869</ele>
        <time>2011-06-11T15:53:24</time>
      </trkpt>
      <trkpt lat="45.33959" lon="5.81416">
        <ele>832</ele>
        <time>2011-06-11T15:53:29</time>
      </trkpt>
      <trkpt lat="45.33966" lon="5.81414">
        <ele>832</ele>
        <time>2011-06-11T15:53:33</time>
      </trkpt>
      <trkpt lat="45.33972" lon="5.81406">
        <ele>832</ele>
        <time>2011-06-11T15:53:38</time>
      </trkpt>
      <trkpt lat="45.33976" lon="5.81402">
        <ele>832</ele>
        <time>2011-06-11T15:53:40</time>
      </trkpt>
      <trkpt lat="45.33978" lon="5.81388">
        <ele>832</ele>
        <time>2011-06-11T15:53:46</time>
      </trkpt>
      <trkpt lat="45.33978" lon="5.81386">
        <ele>832</ele>
        <time>2011-06-11T15:53:47</time>
      </trkpt>
      <trkpt lat="45.3397" lon="5.81372">
        <ele>830</ele>
        <time>2011-06-11T15:53:55</time>
      </trkpt>
      <trkpt lat="45.33967" lon="5.81368">
        <ele>830</ele>
        <time>2011-06-11T15:53:57</time>
      </trkpt>
      <trkpt lat="45.33963" lon="5.81365">
        <ele>830</ele>
        <time>2011-06-11T15:54:00</time>
      </trkpt>
      <trkpt lat="45.33955" lon="5.81352">
        <ele>862</ele>
        <time>2011-06-11T15:54:05</time>
      </trkpt>
      <trkpt lat="45.33947" lon="5.81336">
        <ele>862</ele>
        <time>2011-06-11T15:54:11</time>
      </trkpt>
      <trkpt lat="45.33937" lon="5.81323">
        <ele>862</ele>
        <time>2011-06-11T15:54:17</time>
      </trkpt>
      <trkpt lat="45.33935" lon="5.81307">
        <ele>862</ele>
        <time>2011-06-11T15:54:21</time>
      </trkpt>
      <trkpt lat="45.33935" lon="5.81288">
        <ele>859</ele>
        <time>2011-06-11T15:54:27</time>
      </trkpt>
      <trkpt lat="45.33938" lon="5.81269">
        <ele>859</ele>
        <time>2011-06-11T15:54:32</time>
      </trkpt>
      <trkpt lat="45.33938" lon="5.81259">
        <ele>859</ele>
        <time>2011-06-11T15:54:35</time>
      </trkpt>
      <trkpt lat="45.33943" lon="5.81246">
        <ele>859</ele>
        <time>2011-06-11T15:54:41</time>
      </trkpt>
      <trkpt lat="45.33947" lon="5.81238">
        <ele>859</ele>
        <time>2011-06-11T15:54:45</time>
      </trkpt>
      <trkpt lat="45.33952" lon="5.81218">
        <ele>859</ele>
        <time>2011-06-11T15:54:53</time>
      </trkpt>
      <trkpt lat="45.33952" lon="5.81202">
        <ele>850</ele>
        <time>2011-06-11T15:54:59</time>
      </trkpt>
      <trkpt lat="45.33947" lon="5.81178">
        <ele>850</ele>
        <time>2011-06-11T15:55:06</time>
      </trkpt>
      <trkpt lat="45.33944" lon="5.81162">
        <ele>850</ele>
        <time>2011-06-11T15:55:10</time>
      </trkpt>
      <trkpt lat="45.33939" lon="5.81152">
        <ele>850</ele>
        <time>2011-06-11T15:55:14</time>
      </trkpt>
      <trkpt lat="45.33937" lon="5.8114">
        <ele>850</ele>
        <time>2011-06-11T15:55:18</time>
      </trkpt>
      <trkpt lat="45.33938" lon="5.81129">
        <ele>850</ele>
        <time>2011-06-11T15:55:24</time>
      </trkpt>
      <trkpt lat="45.33936" lon="5.81118">
        <ele>845</ele>
        <time>2011-06-11T15:55:28</time>
      </trkpt>
      <trkpt lat="45.33935" lon="5.811">
        <ele>845</ele>
        <time>2011-06-11T15:55:34</time>
      </trkpt>
      <trkpt lat="45.33929" lon="5.81081">
        <ele>845</ele>
        <time>2011-06-11T15:55:39</time>
      </trkpt>
      <trkpt lat="45.33926" lon="5.81075">
        <ele>845</ele>
        <time>2011-06-11T15:55:41</time>
      </trkpt>
      <trkpt lat="45.3392" lon="5.81066">
        <ele>845</ele>
        <time>2011-06-11T15:55:45</time>
      </trkpt>
      <trkpt lat="45.33921" lon="5.81064">
        <ele>845</ele>
        <time>2011-06-11T15:55:49</time>
      </trkpt>
      <trkpt lat="45.33922" lon="5.81049">
        <ele>845</ele>
        <time>2011-06-11T15:55:55</time>
      </trkpt>
      <trkpt lat="45.33918" lon="5.81043">
        <ele>845</ele>
        <time>2011-06-11T15:55:59</time>
      </trkpt>
      <trkpt lat="45.33919" lon="5.81037">
        <ele>847</ele>
        <time>2011-06-11T15:56:02</time>
      </trkpt>
      <trkpt lat="45.33914" lon="5.81022">
        <ele>847</ele>
        <time>2011-06-11T15:56:08</time>
      </trkpt>
      <trkpt lat="45.33915" lon="5.81009">
        <ele>847</ele>
        <time>2011-06-11T15:56:12</time>
      </trkpt>
      <trkpt lat="45.33919" lon="5.80997">
        <ele>847</ele>
        <time>2011-06-11T15:56:16</time>
      </trkpt>
      <trkpt lat="45.3392" lon="5.8099">
        <ele>847</ele>
        <time>2011-06-11T15:56:19</time>
      </trkpt>
      <trkpt lat="45.33918" lon="5.80977">
        <ele>847</ele>
        <time>2011-06-11T15:56:24</time>
      </trkpt>
      <trkpt lat="45.33919" lon="5.80968">
        <ele>847</ele>
        <time>2011-06-11T15:56:28</time>
      </trkpt>
      <trkpt lat="45.33925" lon="5.80943">
        <ele>848</ele>
        <time>2011-06-11T15:56:35</time>
      </trkpt>
      <trkpt lat="45.33929" lon="5.80936">
        <ele>848</ele>
        <time>2011-06-11T15:56:38</time>
      </trkpt>
      <trkpt lat="45.33936" lon="5.80932">
        <ele>848</ele>
        <time>2011-06-11T15:56:42</time>
      </trkpt>
      <trkpt lat="45.33948" lon="5.8092">
        <ele>848</ele>
        <time>2011-06-11T15:56:48</time>
      </trkpt>
      <trkpt lat="45.33956" lon="5.80909">
        <ele>848</ele>
        <time>2011-06-11T15:56:53</time>
      </trkpt>
      <trkpt lat="45.3396" lon="5.80901">
        <ele>809</ele>
        <time>2011-06-11T15:56:55</time>
      </trkpt>
      <trkpt lat="45.33961" lon="5.80896">
        <ele>809</ele>
        <time>2011-06-11T15:57:00</time>
      </trkpt>
      <trkpt lat="45.3396" lon="5.80888">
        <ele>809</ele>
        <time>2011-06-11T15:57:05</time>
      </trkpt>
      <trkpt lat="45.33961" lon="5.80872">
        <ele>808</ele>
        <time>2011-06-11T15:57:10</time>
      </trkpt>
      <trkpt lat="45.33963" lon="5.80854">
        <ele>808</ele>
        <time>2011-06-11T15:57:15</time>
      </trkpt>
      <trkpt lat="45.33961" lon="5.80841">
        <ele>808</ele>
        <time>2011-06-11T15:57:19</time>
      </trkpt>
      <trkpt lat="45.3396" lon="5.80826">
        <ele>808</ele>
        <time>2011-06-11T15:57:23</time>
      </trkpt>
      <trkpt lat="45.33956" lon="5.80817">
        <ele>832</ele>
        <time>2011-06-11T15:57:27</time>
      </trkpt>
      <trkpt lat="45.33953" lon="5.80805">
        <ele>832</ele>
        <time>2011-06-11T15:57:32</time>
      </trkpt>
      <trkpt lat="45.3395" lon="5.80794">
        <ele>832</ele>
        <time>2011-06-11T15:57:36</time>
      </trkpt>
      <trkpt lat="45.33949" lon="5.80783">
        <ele>805</ele>
        <time>2011-06-11T15:57:40</time>
      </trkpt>
      <trkpt lat="45.33944" lon="5.80768">
        <ele>805</ele>
        <time>2011-06-11T15:57:46</time>
      </trkpt>
      <trkpt lat="45.33949" lon="5.80764">
        <ele>805</ele>
        <time>2011-06-11T15:57:50</time>
      </trkpt>
      <trkpt lat="45.33963" lon="5.80772">
        <ele>802</ele>
        <time>2011-06-11T15:57:58</time>
      </trkpt>
      <trkpt lat="45.33972" lon="5.80776">
        <ele>802</ele>
        <time>2011-06-11T15:58:02</time>
      </trkpt>
      <trkpt lat="45.3398" lon="5.80779">
        <ele>802</ele>
        <time>2011-06-11T15:58:06</time>
      </trkpt>
      <trkpt lat="45.33985" lon="5.80784">
        <ele>802</ele>
        <time>2011-06-11T15:58:09</time>
      </trkpt>
      <trkpt lat="45.33987" lon="5.80786">
        <ele>802</ele>
        <time>2011-06-11T15:58:11</time>
      </trkpt>
      <trkpt lat="45.3399" lon="5.8079">
        <ele>802</ele>
        <time>2011-06-11T15:58:14</time>
      </trkpt>
      <trkpt lat="45.33996" lon="5.808">
        <ele>808</ele>
        <time>2011-06-11T15:58:20</time>
      </trkpt>
      <trkpt lat="45.34005" lon="5.80806">
        <ele>808</ele>
        <time>2011-06-11T15:58:25</time>
      </trkpt>
      <trkpt lat="45.34006" lon="5.80807">
        <ele>808</ele>
        <time>2011-06-11T15:58:26</time>
      </trkpt>
      <trkpt lat="45.34005" lon="5.8081">
        <ele>808</ele>
        <time>2011-06-11T15:58:31</time>
      </trkpt>
      <trkpt lat="45.34" lon="5.80794">
        <ele>808</ele>
        <time>2011-06-11T15:58:37</time>
      </trkpt>
      <trkpt lat="45.33994" lon="5.80782">
        <ele>802</ele>
        <time>2011-06-11T15:58:42</time>
      </trkpt>
      <trkpt lat="45.33993" lon="5.80779">
        <ele>802</ele>
        <time>2011-06-11T15:58:43</time>
      </trkpt>
      <trkpt lat="45.33988" lon="5.8076">
        <ele>802</ele>
        <time>2011-06-11T15:58:50</time>
      </trkpt>
      <trkpt lat="45.33986" lon="5.80743">
        <ele>802</ele>
        <time>2011-06-11T15:58:55</time>
      </trkpt>
      <trkpt lat="45.33983" lon="5.80731">
        <ele>802</ele>
        <time>2011-06-11T15:58:59</time>
      </trkpt>
      <trkpt lat="45.33981" lon="5.80715">
        <ele>802</ele>
        <time>2011-06-11T15:59:04</time>
      </trkpt>
      <trkpt lat="45.33979" lon="5.807">
        <ele>799</ele>
        <time>2011-06-11T15:59:09</time>
      </trkpt>
      <trkpt lat="45.33977" lon="5.8068">
        <ele>799</ele>
        <time>2011-06-11T15:59:15</time>
      </trkpt>
      <trkpt lat="45.33976" lon="5.80674">
        <ele>799</ele>
        <time>2011-06-11T15:59:17</time>
      </trkpt>
      <trkpt lat="45.33971" lon="5.80657">
        <ele>799</ele>
        <time>2011-06-11T15:59:23</time>
      </trkpt>
      <trkpt lat="45.33967" lon="5.80639">
        <ele>799</ele>
        <time>2011-06-11T15:59:29</time>
      </trkpt>
      <trkpt lat="45.33966" lon="5.80622">
        <ele>799</ele>
        <time>2011-06-11T15:59:35</time>
      </trkpt>
      <trkpt lat="45.33964" lon="5.80606">
        <ele>799</ele>
        <time>2011-06-11T15:59:40</time>
      </trkpt>
      <trkpt lat="45.33964" lon="5.80595">
        <ele>799</ele>
        <time>2011-06-11T15:59:44</time>
      </trkpt>
      <trkpt lat="45.33968" lon="5.80586">
        <ele>799</ele>
        <time>2011-06-11T15:59:48</time>
      </trkpt>
      <trkpt lat="45.33972" lon="5.8058">
        <ele>799</ele>
        <time>2011-06-11T15:59:54</time>
      </trkpt>
      <trkpt lat="45.33978" lon="5.80574">
        <ele>799</ele>
        <time>2011-06-11T15:59:58</time>
      </trkpt>
      <trkpt lat="45.33981" lon="5.80571">
        <ele>799</ele>
        <time>2011-06-11T16:00:00</time>
      </trkpt>
      <trkpt lat="45.33985" lon="5.80566">
        <ele>799</ele>
        <time>2011-06-11T16:00:06</time>
      </trkpt>
      <trkpt lat="45.33993" lon="5.8056">
        <ele>799</ele>
        <time>2011-06-11T16:00:11</time>
      </trkpt>
      <trkpt lat="45.34001" lon="5.80556">
        <ele>799</ele>
        <time>2011-06-11T16:00:16</time>
      </trkpt>
      <trkpt lat="45.34009" lon="5.80548">
        <ele>799</ele>
        <time>2011-06-11T16:00:22</time>
      </trkpt>
      <trkpt lat="45.34015" lon="5.8054">
        <ele>812</ele>
        <time>2011-06-11T16:00:27</time>
      </trkpt>
      <trkpt lat="45.34018" lon="5.80538">
        <ele>812</ele>
        <time>2011-06-11T16:00:31</time>
      </trkpt>
      <trkpt lat="45.34021" lon="5.80536">
        <ele>812</ele>
        <time>2011-06-11T16:00:39</time>
      </trkpt>
      <trkpt lat="45.3402" lon="5.80538">
        <ele>812</ele>
        <time>2011-06-11T16:00:44</time>
      </trkpt>
      <trkpt lat="45.34015" lon="5.80552">
        <ele>799</ele>
        <time>2011-06-11T16:00:52</time>
      </trkpt>
      <trkpt lat="45.34021" lon="5.80553">
        <ele>799</ele>
        <time>2011-06-11T16:01:00</time>
      </trkpt>
      <trkpt lat="45.34023" lon="5.80556">
        <ele>799</ele>
        <time>2011-06-11T16:01:03</time>
      </trkpt>
      <trkpt lat="45.34031" lon="5.80559">
        <ele>799</ele>
        <time>2011-06-11T16:01:10</time>
      </trkpt>
      <trkpt lat="45.34031" lon="5.80562">
        <ele>799</ele>
        <time>2011-06-11T16:01:14</time>
      </trkpt>
      <trkpt lat="45.34031" lon="5.80568">
        <ele>799</ele>
        <time>2011-06-11T16:01:17</time>
      </trkpt>
      <trkpt lat="45.34028" lon="5.80578">
        <ele>799</ele>
        <time>2011-06-11T16:01:21</time>
      </trkpt>
      <trkpt lat="45.34026" lon="5.80586">
        <ele>799</ele>
        <time>2011-06-11T16:01:24</time>
      </trkpt>
      <trkpt lat="45.34018" lon="5.80608">
        <ele>799</ele>
        <time>2011-06-11T16:01:30</time>
      </trkpt>
      <trkpt lat="45.34013" lon="5.80618">
        <ele>799</ele>
        <time>2011-06-11T16:01:34</time>
      </trkpt>
      <trkpt lat="45.34011" lon="5.8062">
        <ele>799</ele>
        <time>2011-06-11T16:01:35</time>
      </trkpt>
      <trkpt lat="45.34016" lon="5.8063">
        <ele>799</ele>
        <time>2011-06-11T16:01:41</time>
      </trkpt>
      <trkpt lat="45.34025" lon="5.80633">
        <ele>799</ele>
        <time>2011-06-11T16:01:47</time>
      </trkpt>
      <trkpt lat="45.34027" lon="5.80634">
        <ele>799</ele>
        <time>2011-06-11T16:01:51</time>
      </trkpt>
      <trkpt lat="45.34033" lon="5.8063">
        <ele>799</ele>
        <time>2011-06-11T16:01:55</time>
      </trkpt>
      <trkpt lat="45.34037" lon="5.80617">
        <ele>799</ele>
        <time>2011-06-11T16:02:03</time>
      </trkpt>
      <trkpt lat="45.34039" lon="5.80612">
        <ele>799</ele>
        <time>2011-06-11T16:02:07</time>
      </trkpt>
      <trkpt lat="45.34039" lon="5.80608">
        <ele>799</ele>
        <time>2011-06-11T16:02:09</time>
      </trkpt>
      <trkpt lat="45.34039" lon="5.80597">
        <ele>799</ele>
        <time>2011-06-11T16:02:15</time>
      </trkpt>
      <trkpt lat="45.34043" lon="5.80582">
        <ele>827</ele>
        <time>2011-06-11T16:02:29</time>
      </trkpt>
      <trkpt lat="45.34044" lon="5.80578">
        <ele>827</ele>
        <time>2011-06-11T16:02:31</time>
      </trkpt>
      <trkpt lat="45.34049" lon="5.80557">
        <ele>827</ele>
        <time>2011-06-11T16:02:39</time>
      </trkpt>
      <trkpt lat="45.34051" lon="5.80552">
        <ele>827</ele>
        <time>2011-06-11T16:02:43</time>
      </trkpt>
      <trkpt lat="45.34064" lon="5.80531">
        <ele>821</ele>
        <time>2011-06-11T16:03:12</time>
      </trkpt>
      <trkpt lat="45.34065" lon="5.80529">
        <ele>821</ele>
        <time>2011-06-11T16:03:16</time>
      </trkpt>
      <trkpt lat="45.34069" lon="5.80524">
        <ele>821</ele>
        <time>2011-06-11T16:03:21</time>
      </trkpt>
      <trkpt lat="45.34076" lon="5.80517">
        <ele>821</ele>
        <time>2011-06-11T16:03:26</time>
      </trkpt>
      <trkpt lat="45.34084" lon="5.8051">
        <ele>821</ele>
        <time>2011-06-11T16:03:31</time>
      </trkpt>
      <trkpt lat="45.34091" lon="5.80504">
        <ele>821</ele>
        <time>2011-06-11T16:03:35</time>
      </trkpt>
      <trkpt lat="45.34101" lon="5.80495">
        <ele>821</ele>
        <time>2011-06-11T16:03:41</time>
      </trkpt>
      <trkpt lat="45.34109" lon="5.80484">
        <ele>821</ele>
        <time>2011-06-11T16:03:46</time>
      </trkpt>
      <trkpt lat="45.34113" lon="5.8048">
        <ele>821</ele>
        <time>2011-06-11T16:03:49</time>
      </trkpt>
      <trkpt lat="45.34122" lon="5.80472">
        <ele>821</ele>
        <time>2011-06-11T16:03:54</time>
      </trkpt>
      <trkpt lat="45.34126" lon="5.80469">
        <ele>865</ele>
        <time>2011-06-11T16:03:57</time>
      </trkpt>
      <trkpt lat="45.34135" lon="5.80462">
        <ele>865</ele>
        <time>2011-06-11T16:04:03</time>
      </trkpt>
      <trkpt lat="45.34138" lon="5.80459">
        <ele>865</ele>
        <time>2011-06-11T16:04:06</time>
      </trkpt>
      <trkpt lat="45.34142" lon="5.80455">
        <ele>827</ele>
        <time>2011-06-11T16:04:09</time>
      </trkpt>
      <trkpt lat="45.34145" lon="5.80452">
        <ele>827</ele>
        <time>2011-06-11T16:04:12</time>
      </trkpt>
      <trkpt lat="45.34148" lon="5.80448">
        <ele>827</ele>
        <time>2011-06-11T16:04:15</time>
      </trkpt>
      <trkpt lat="45.34154" lon="5.80439">
        <ele>827</ele>
        <time>2011-06-11T16:04:19</time>
      </trkpt>
      <trkpt lat="45.34164" lon="5.80435">
        <ele>827</ele>
        <time>2011-06-11T16:04:25</time>
      </trkpt>
      <trkpt lat="45.3417" lon="5.80434">
        <ele>827</ele>
        <time>2011-06-11T16:04:28</time>
      </trkpt>
      <trkpt lat="45.34176" lon="5.80431">
        <ele>827</ele>
        <time>2011-06-11T16:04:31</time>
      </trkpt>
      <trkpt lat="45.3419" lon="5.80419">
        <ele>827</ele>
        <time>2011-06-11T16:04:38</time>
      </trkpt>
      <trkpt lat="45.34199" lon="5.80415">
        <ele>827</ele>
        <time>2011-06-11T16:04:43</time>
      </trkpt>
      <trkpt lat="45.34211" lon="5.8041">
        <ele>853</ele>
        <time>2011-06-11T16:04:48</time>
      </trkpt>
      <trkpt lat="45.34213" lon="5.80409">
        <ele>853</ele>
        <time>2011-06-11T16:04:49</time>
      </trkpt>
      <trkpt lat="45.34223" lon="5.80407">
        <ele>853</ele>
        <time>2011-06-11T16:04:54</time>
      </trkpt>
      <trkpt lat="45.34234" lon="5.80402">
        <ele>853</ele>
        <time>2011-06-11T16:05:00</time>
      </trkpt>
      <trkpt lat="45.34236" lon="5.80402">
        <ele>853</ele>
        <time>2011-06-11T16:05:01</time>
      </trkpt>
      <trkpt lat="45.34248" lon="5.80399">
        <ele>853</ele>
        <time>2011-06-11T16:05:07</time>
      </trkpt>
      <trkpt lat="45.34256" lon="5.80398">
        <ele>853</ele>
        <time>2011-06-11T16:05:12</time>
      </trkpt>
      <trkpt lat="45.34266" lon="5.80395">
        <ele>853</ele>
        <time>2011-06-11T16:05:18</time>
      </trkpt>
      <trkpt lat="45.34278" lon="5.80397">
        <ele>853</ele>
        <time>2011-06-11T16:05:24</time>
      </trkpt>
      <trkpt lat="45.34281" lon="5.80398">
        <ele>853</ele>
        <time>2011-06-11T16:05:26</time>
      </trkpt>
      <trkpt lat="45.3429" lon="5.80388">
        <ele>853</ele>
        <time>2011-06-11T16:05:32</time>
      </trkpt>
      <trkpt lat="45.34297" lon="5.80384">
        <ele>883</ele>
        <time>2011-06-11T16:05:36</time>
      </trkpt>
      <trkpt lat="45.34305" lon="5.80377">
        <ele>883</ele>
        <time>2011-06-11T16:05:42</time>
      </trkpt>
      <trkpt lat="45.34307" lon="5.80372">
        <ele>831</ele>
        <time>2011-06-11T16:05:44</time>
      </trkpt>
      <trkpt lat="45.34316" lon="5.80365">
        <ele>831</ele>
        <time>2011-06-11T16:05:49</time>
      </trkpt>
      <trkpt lat="45.34319" lon="5.80365">
        <ele>831</ele>
        <time>2011-06-11T16:05:50</time>
      </trkpt>
      <trkpt lat="45.34328" lon="5.80363">
        <ele>831</ele>
        <time>2011-06-11T16:05:55</time>
      </trkpt>
      <trkpt lat="45.34331" lon="5.80361">
        <ele>831</ele>
        <time>2011-06-11T16:05:57</time>
      </trkpt>
      <trkpt lat="45.34337" lon="5.80351">
        <ele>831</ele>
        <time>2011-06-11T16:06:02</time>
      </trkpt>
      <trkpt lat="45.3434" lon="5.80348">
        <ele>831</ele>
        <time>2011-06-11T16:06:04</time>
      </trkpt>
      <trkpt lat="45.34351" lon="5.80338">
        <ele>831</ele>
        <time>2011-06-11T16:06:11</time>
      </trkpt>
      <trkpt lat="45.34353" lon="5.80335">
        <ele>831</ele>
        <time>2011-06-11T16:06:13</time>
      </trkpt>
      <trkpt lat="45.34361" lon="5.80329">
        <ele>831</ele>
        <time>2011-06-11T16:06:21</time>
      </trkpt>
      <trkpt lat="45.34362" lon="5.80326">
        <ele>831</ele>
        <time>2011-06-11T16:06:23</time>
      </trkpt>
      <trkpt lat="45.34372" lon="5.80321">
        <ele>831</ele>
        <time>2011-06-11T16:06:30</time>
      </trkpt>
      <trkpt lat="45.34378" lon="5.80318">
        <ele>856</ele>
        <time>2011-06-11T16:06:34</time>
      </trkpt>
      <trkpt lat="45.34387" lon="5.80317">
        <ele>856</ele>
        <time>2011-06-11T16:06:40</time>
      </trkpt>
      <trkpt lat="45.3439" lon="5.80317">
        <ele>856</ele>
        <time>2011-06-11T16:06:42</time>
      </trkpt>
      <trkpt lat="45.34398" lon="5.80314">
        <ele>856</ele>
        <time>2011-06-11T16:06:47</time>
      </trkpt>
      <trkpt lat="45.344" lon="5.80314">
        <ele>856</ele>
        <time>2011-06-11T16:06:48</time>
      </trkpt>
      <trkpt lat="45.34402" lon="5.80313">
        <ele>856</ele>
        <time>2011-06-11T16:06:50</time>
      </trkpt>
      <trkpt lat="45.34409" lon="5.80312">
        <ele>856</ele>
        <time>2011-06-11T16:06:56</time>
      </trkpt>
      <trkpt lat="45.34416" lon="5.80311">
        <ele>856</ele>
        <time>2011-06-11T16:07:01</time>
      </trkpt>
      <trkpt lat="45.34424" lon="5.80311">
        <ele>856</ele>
        <time>2011-06-11T16:07:06</time>
      </trkpt>
      <trkpt lat="45.34428" lon="5.80313">
        <ele>856</ele>
        <time>2011-06-11T16:07:08</time>
      </trkpt>
      <trkpt lat="45.34439" lon="5.80315">
        <ele>856</ele>
        <time>2011-06-11T16:07:12</time>
      </trkpt>
      <trkpt lat="45.34443" lon="5.80319">
        <ele>856</ele>
        <time>2011-06-11T16:07:17</time>
      </trkpt>
      <trkpt lat="45.34449" lon="5.80319">
        <ele>856</ele>
        <time>2011-06-11T16:07:22</time>
      </trkpt>
      <trkpt lat="45.34452" lon="5.80319">
        <ele>856</ele>
        <time>2011-06-11T16:07:26</time>
      </trkpt>
      <trkpt lat="45.34465" lon="5.80319">
        <ele>858</ele>
        <time>2011-06-11T16:07:31</time>
      </trkpt>
      <trkpt lat="45.34469" lon="5.80328">
        <ele>858</ele>
        <time>2011-06-11T16:07:35</time>
      </trkpt>
      <trkpt lat="45.34478" lon="5.8033">
        <ele>858</ele>
        <time>2011-06-11T16:07:40</time>
      </trkpt>
      <trkpt lat="45.34487" lon="5.80337">
        <ele>858</ele>
        <time>2011-06-11T16:07:46</time>
      </trkpt>
      <trkpt lat="45.34489" lon="5.80341">
        <ele>858</ele>
        <time>2011-06-11T16:07:48</time>
      </trkpt>
      <trkpt lat="45.34489" lon="5.80341">
        <ele>858</ele>
        <time>2011-06-11T16:07:48</time>
      </trkpt>
      <trkpt lat="45.34491" lon="5.80343">
        <ele>858</ele>
        <time>2011-06-11T16:07:50</time>
      </trkpt>
      <trkpt lat="45.34495" lon="5.80342">
        <ele>858</ele>
        <time>2011-06-11T16:07:54</time>
      </trkpt>
      <trkpt lat="45.34506" lon="5.80349">
        <ele>858</ele>
        <time>2011-06-11T16:08:01</time>
      </trkpt>
      <trkpt lat="45.34515" lon="5.8035">
        <ele>858</ele>
        <time>2011-06-11T16:08:05</time>
      </trkpt>
      <trkpt lat="45.34525" lon="5.80351">
        <ele>858</ele>
        <time>2011-06-11T16:08:11</time>
      </trkpt>
      <trkpt lat="45.34529" lon="5.80355">
        <ele>858</ele>
        <time>2011-06-11T16:08:15</time>
      </trkpt>
      <trkpt lat="45.34536" lon="5.80353">
        <ele>858</ele>
        <time>2011-06-11T16:08:20</time>
      </trkpt>
      <trkpt lat="45.3454" lon="5.80355">
        <ele>858</ele>
        <time>2011-06-11T16:08:23</time>
      </trkpt>
      <trkpt lat="45.34548" lon="5.80355">
        <ele>864</ele>
        <time>2011-06-11T16:08:27</time>
      </trkpt>
      <trkpt lat="45.34553" lon="5.80352">
        <ele>864</ele>
        <time>2011-06-11T16:08:29</time>
      </trkpt>
      <trkpt lat="45.34559" lon="5.80355">
        <ele>864</ele>
        <time>2011-06-11T16:08:35</time>
      </trkpt>
      <trkpt lat="45.34562" lon="5.8036">
        <ele>864</ele>
        <time>2011-06-11T16:08:40</time>
      </trkpt>
      <trkpt lat="45.34565" lon="5.80361">
        <ele>864</ele>
        <time>2011-06-11T16:08:42</time>
      </trkpt>
      <trkpt lat="45.34577" lon="5.80362">
        <ele>864</ele>
        <time>2011-06-11T16:08:47</time>
      </trkpt>
      <trkpt lat="45.3458" lon="5.80363">
        <ele>864</ele>
        <time>2011-06-11T16:08:49</time>
      </trkpt>
      <trkpt lat="45.34582" lon="5.80379">
        <ele>892</ele>
        <time>2011-06-11T16:08:55</time>
      </trkpt>
      <trkpt lat="45.34582" lon="5.80378">
        <ele>892</ele>
        <time>2011-06-11T16:08:58</time>
      </trkpt>
      <trkpt lat="45.3459" lon="5.80368">
        <ele>864</ele>
        <time>2011-06-11T16:09:04</time>
      </trkpt>
      <trkpt lat="45.34593" lon="5.8036">
        <ele>864</ele>
        <time>2011-06-11T16:09:08</time>
      </trkpt>
      <trkpt lat="45.34592" lon="5.80346">
        <ele>864</ele>
        <time>2011-06-11T16:09:14</time>
      </trkpt>
      <trkpt lat="45.34593" lon="5.80343">
        <ele>864</ele>
        <time>2011-06-11T16:09:16</time>
      </trkpt>
      <trkpt lat="45.34596" lon="5.80339">
        <ele>864</ele>
        <time>2011-06-11T16:09:23</time>
      </trkpt>
      <trkpt lat="45.34593" lon="5.80328">
        <ele>864</ele>
        <time>2011-06-11T16:09:28</time>
      </trkpt>
      <trkpt lat="45.34591" lon="5.80323">
        <ele>864</ele>
        <time>2011-06-11T16:09:32</time>
      </trkpt>
      <trkpt lat="45.34591" lon="5.8031">
        <ele>864</ele>
        <time>2011-06-11T16:09:38</time>
      </trkpt>
      <trkpt lat="45.34586" lon="5.803">
        <ele>864</ele>
        <time>2011-06-11T16:09:43</time>
      </trkpt>
      <trkpt lat="45.34583" lon="5.80293">
        <ele>864</ele>
        <time>2011-06-11T16:09:46</time>
      </trkpt>
      <trkpt lat="45.34579" lon="5.80283">
        <ele>874</ele>
        <time>2011-06-11T16:09:51</time>
      </trkpt>
      <trkpt lat="45.34573" lon="5.80276">
        <ele>874</ele>
        <time>2011-06-11T16:09:56</time>
      </trkpt>
      <trkpt lat="45.34559" lon="5.80275">
        <ele>874</ele>
        <time>2011-06-11T16:10:03</time>
      </trkpt>
      <trkpt lat="45.34546" lon="5.80277">
        <ele>874</ele>
        <time>2011-06-11T16:10:08</time>
      </trkpt>
      <trkpt lat="45.3454" lon="5.8028">
        <ele>839</ele>
        <time>2011-06-11T16:10:11</time>
      </trkpt>
      <trkpt lat="45.34532" lon="5.80281">
        <ele>839</ele>
        <time>2011-06-11T16:10:16</time>
      </trkpt>
      <trkpt lat="45.34525" lon="5.80288">
        <ele>839</ele>
        <time>2011-06-11T16:10:21</time>
      </trkpt>
      <trkpt lat="45.34522" lon="5.80288">
        <ele>839</ele>
        <time>2011-06-11T16:10:23</time>
      </trkpt>
      <trkpt lat="45.34514" lon="5.80281">
        <ele>839</ele>
        <time>2011-06-11T16:10:29</time>
      </trkpt>
      <trkpt lat="45.34512" lon="5.80272">
        <ele>839</ele>
        <time>2011-06-11T16:10:34</time>
      </trkpt>
      <trkpt lat="45.34511" lon="5.80252">
        <ele>839</ele>
        <time>2011-06-11T16:10:41</time>
      </trkpt>
      <trkpt lat="45.34512" lon="5.80252">
        <ele>839</ele>
        <time>2011-06-11T16:10:55</time>
      </trkpt>
      <trkpt lat="45.34509" lon="5.80249">
        <ele>839</ele>
        <time>2011-06-11T16:10:59</time>
      </trkpt>
      <trkpt lat="45.34508" lon="5.80238">
        <ele>839</ele>
        <time>2011-06-11T16:11:03</time>
      </trkpt>
      <trkpt lat="45.34504" lon="5.80227">
        <ele>839</ele>
        <time>2011-06-11T16:11:10</time>
      </trkpt>
      <trkpt lat="45.34502" lon="5.80218">
        <ele>839</ele>
        <time>2011-06-11T16:11:15</time>
      </trkpt>
      <trkpt lat="45.34499" lon="5.80211">
        <ele>839</ele>
        <time>2011-06-11T16:11:20</time>
      </trkpt>
      <trkpt lat="45.34498" lon="5.8021">
        <ele>839</ele>
        <time>2011-06-11T16:11:21</time>
      </trkpt>
      <trkpt lat="45.34496" lon="5.80206">
        <ele>848</ele>
        <time>2011-06-11T16:11:24</time>
      </trkpt>
      <trkpt lat="45.34487" lon="5.80201">
        <ele>848</ele>
        <time>2011-06-11T16:11:30</time>
      </trkpt>
      <trkpt lat="45.34485" lon="5.802">
        <ele>848</ele>
        <time>2011-06-11T16:11:31</time>
      </trkpt>
      <trkpt lat="45.3448" lon="5.80196">
        <ele>848</ele>
        <time>2011-06-11T16:11:35</time>
      </trkpt>
      <trkpt lat="45.34472" lon="5.80187">
        <ele>848</ele>
        <time>2011-06-11T16:11:41</time>
      </trkpt>
      <trkpt lat="45.34465" lon="5.80184">
        <ele>848</ele>
        <time>2011-06-11T16:11:46</time>
      </trkpt>
      <trkpt lat="45.34457" lon="5.80184">
        <ele>809</ele>
        <time>2011-06-11T16:11:50</time>
      </trkpt>
      <trkpt lat="45.34453" lon="5.80184">
        <ele>809</ele>
        <time>2011-06-11T16:11:52</time>
      </trkpt>
      <trkpt lat="45.34447" lon="5.80184">
        <ele>809</ele>
        <time>2011-06-11T16:11:56</time>
      </trkpt>
      <trkpt lat="45.34443" lon="5.80182">
        <ele>809</ele>
        <time>2011-06-11T16:12:00</time>
      </trkpt>
      <trkpt lat="45.34442" lon="5.80181">
        <ele>809</ele>
        <time>2011-06-11T16:12:06</time>
      </trkpt>
      <trkpt lat="45.34443" lon="5.80182">
        <ele>809</ele>
        <time>2011-06-11T16:12:09</time>
      </trkpt>
      <trkpt lat="45.34444" lon="5.80186">
        <ele>809</ele>
        <time>2011-06-11T16:12:12</time>
      </trkpt>
      <trkpt lat="45.3444" lon="5.80178">
        <ele>809</ele>
        <time>2011-06-11T16:12:18</time>
      </trkpt>
      <trkpt lat="45.34438" lon="5.80169">
        <ele>809</ele>
        <time>2011-06-11T16:12:23</time>
      </trkpt>
      <trkpt lat="45.34438" lon="5.80162">
        <ele>809</ele>
        <time>2011-06-11T16:12:26</time>
      </trkpt>
      <trkpt lat="45.3444" lon="5.8015">
        <ele>809</ele>
        <time>2011-06-11T16:12:32</time>
      </trkpt>
      <trkpt lat="45.34437" lon="5.80142">
        <ele>809</ele>
        <time>2011-06-11T16:12:38</time>
      </trkpt>
      <trkpt lat="45.34437" lon="5.80133">
        <ele>809</ele>
        <time>2011-06-11T16:12:44</time>
      </trkpt>
      <trkpt lat="45.34435" lon="5.80126">
        <ele>809</ele>
        <time>2011-06-11T16:12:49</time>
      </trkpt>
      <trkpt lat="45.34431" lon="5.80124">
        <ele>823</ele>
        <time>2011-06-11T16:12:53</time>
      </trkpt>
      <trkpt lat="45.34428" lon="5.80122">
        <ele>823</ele>
        <time>2011-06-11T16:12:55</time>
      </trkpt>
      <trkpt lat="45.34424" lon="5.80109">
        <ele>823</ele>
        <time>2011-06-11T16:13:01</time>
      </trkpt>
      <trkpt lat="45.34419" lon="5.80098">
        <ele>823</ele>
        <time>2011-06-11T16:13:06</time>
      </trkpt>
      <trkpt lat="45.34418" lon="5.80091">
        <ele>823</ele>
        <time>2011-06-11T16:13:10</time>
      </trkpt>
      <trkpt lat="45.3441" lon="5.80078">
        <ele>823</ele>
        <time>2011-06-11T16:13:16</time>
      </trkpt>
      <trkpt lat="45.34409" lon="5.80076">
        <ele>823</ele>
        <time>2011-06-11T16:13:17</time>
      </trkpt>
      <trkpt lat="45.34401" lon="5.80065">
        <ele>823</ele>
        <time>2011-06-11T16:13:23</time>
      </trkpt>
      <trkpt lat="45.34399" lon="5.80061">
        <ele>823</ele>
        <time>2011-06-11T16:13:26</time>
      </trkpt>
      <trkpt lat="45.34394" lon="5.80059">
        <ele>823</ele>
        <time>2011-06-11T16:13:32</time>
      </trkpt>
      <trkpt lat="45.34392" lon="5.80061">
        <ele>823</ele>
        <time>2011-06-11T16:13:37</time>
      </trkpt>
      <trkpt lat="45.34389" lon="5.80077">
        <ele>823</ele>
        <time>2011-06-11T16:13:43</time>
      </trkpt>
      <trkpt lat="45.34389" lon="5.80089">
        <ele>823</ele>
        <time>2011-06-11T16:13:49</time>
      </trkpt>
      <trkpt lat="45.34388" lon="5.80091">
        <ele>823</ele>
        <time>2011-06-11T16:13:50</time>
      </trkpt>
      <trkpt lat="45.34384" lon="5.80098">
        <ele>823</ele>
        <time>2011-06-11T16:13:56</time>
      </trkpt>
      <trkpt lat="45.34387" lon="5.80103">
        <ele>823</ele>
        <time>2011-06-11T16:14:00</time>
      </trkpt>
      <trkpt lat="45.34387" lon="5.80111">
        <ele>823</ele>
        <time>2011-06-11T16:14:04</time>
      </trkpt>
      <trkpt lat="45.34387" lon="5.80135">
        <ele>809</ele>
        <time>2011-06-11T16:14:11</time>
      </trkpt>
      <trkpt lat="45.34392" lon="5.80136">
        <ele>809</ele>
        <time>2011-06-11T16:14:15</time>
      </trkpt>
      <trkpt lat="45.34391" lon="5.80139">
        <ele>809</ele>
        <time>2011-06-11T16:14:18</time>
      </trkpt>
      <trkpt lat="45.34391" lon="5.80155">
        <ele>809</ele>
        <time>2011-06-11T16:14:25</time>
      </trkpt>
      <trkpt lat="45.34388" lon="5.80177">
        <ele>809</ele>
        <time>2011-06-11T16:14:30</time>
      </trkpt>
      <trkpt lat="45.34392" lon="5.80185">
        <ele>809</ele>
        <time>2011-06-11T16:14:33</time>
      </trkpt>
      <trkpt lat="45.34386" lon="5.80195">
        <ele>809</ele>
        <time>2011-06-11T16:14:37</time>
      </trkpt>
      <trkpt lat="45.34381" lon="5.80193">
        <ele>809</ele>
        <time>2011-06-11T16:14:40</time>
      </trkpt>
      <trkpt lat="45.34369" lon="5.80192">
        <ele>817</ele>
        <time>2011-06-11T16:14:46</time>
      </trkpt>
      <trkpt lat="45.34367" lon="5.80192">
        <ele>817</ele>
        <time>2011-06-11T16:14:47</time>
      </trkpt>
      <trkpt lat="45.34353" lon="5.80195">
        <ele>817</ele>
        <time>2011-06-11T16:14:52</time>
      </trkpt>
      <trkpt lat="45.34338" lon="5.80202">
        <ele>817</ele>
        <time>2011-06-11T16:14:58</time>
      </trkpt>
      <trkpt lat="45.34325" lon="5.8021">
        <ele>809</ele>
        <time>2011-06-11T16:15:03</time>
      </trkpt>
      <trkpt lat="45.34317" lon="5.80211">
        <ele>809</ele>
        <time>2011-06-11T16:15:08</time>
      </trkpt>
      <trkpt lat="45.34313" lon="5.80213">
        <ele>809</ele>
        <time>2011-06-11T16:15:13</time>
      </trkpt>
      <trkpt lat="45.34306" lon="5.80219">
        <ele>809</ele>
        <time>2011-06-11T16:15:20</time>
      </trkpt>
      <trkpt lat="45.343" lon="5.80226">
        <ele>809</ele>
        <time>2011-06-11T16:15:26</time>
      </trkpt>
      <trkpt lat="45.34302" lon="5.80238">
        <ele>809</ele>
        <time>2011-06-11T16:15:32</time>
      </trkpt>
      <trkpt lat="45.34302" lon="5.80241">
        <ele>809</ele>
        <time>2011-06-11T16:15:33</time>
      </trkpt>
      <trkpt lat="45.34297" lon="5.80247">
        <ele>809</ele>
        <time>2011-06-11T16:15:37</time>
      </trkpt>
      <trkpt lat="45.34278" lon="5.80265">
        <ele>825</ele>
        <time>2011-06-11T16:15:45</time>
      </trkpt>
      <trkpt lat="45.34272" lon="5.80274">
        <ele>825</ele>
        <time>2011-06-11T16:15:49</time>
      </trkpt>
      <trkpt lat="45.34262" lon="5.80276">
        <ele>825</ele>
        <time>2011-06-11T16:15:53</time>
      </trkpt>
      <trkpt lat="45.34259" lon="5.80277">
        <ele>825</ele>
        <time>2011-06-11T16:15:55</time>
      </trkpt>
      <trkpt lat="45.34253" lon="5.80272">
        <ele>825</ele>
        <time>2011-06-11T16:16:01</time>
      </trkpt>
      <trkpt lat="45.34249" lon="5.80268">
        <ele>825</ele>
        <time>2011-06-11T16:16:05</time>
      </trkpt>
      <trkpt lat="45.34246" lon="5.80264">
        <ele>825</ele>
        <time>2011-06-11T16:16:10</time>
      </trkpt>
      <trkpt lat="45.34242" lon="5.80261">
        <ele>825</ele>
        <time>2011-06-11T16:16:17</time>
      </trkpt>
      <trkpt lat="45.34237" lon="5.8026">
        <ele>825</ele>
        <time>2011-06-11T16:16:21</time>
      </trkpt>
      <trkpt lat="45.34229" lon="5.80256">
        <ele>825</ele>
        <time>2011-06-11T16:16:26</time>
      </trkpt>
      <trkpt lat="45.34224" lon="5.80257">
        <ele>825</ele>
        <time>2011-06-11T16:16:31</time>
      </trkpt>
      <trkpt lat="45.34224" lon="5.80259">
        <ele>825</ele>
        <time>2011-06-11T16:16:33</time>
      </trkpt>
      <trkpt lat="45.34218" lon="5.80262">
        <ele>825</ele>
        <time>2011-06-11T16:16:37</time>
      </trkpt>
      <trkpt lat="45.34217" lon="5.80263">
        <ele>825</ele>
        <time>2011-06-11T16:16:38</time>
      </trkpt>
      <trkpt lat="45.34201" lon="5.80269">
        <ele>832</ele>
        <time>2011-06-11T16:16:44</time>
      </trkpt>
      <trkpt lat="45.34194" lon="5.80273">
        <ele>832</ele>
        <time>2011-06-11T16:16:48</time>
      </trkpt>
      <trkpt lat="45.34187" lon="5.80273">
        <ele>832</ele>
        <time>2011-06-11T16:16:53</time>
      </trkpt>
      <trkpt lat="45.34184" lon="5.8027">
        <ele>832</ele>
        <time>2011-06-11T16:16:55</time>
      </trkpt>
      <trkpt lat="45.34174" lon="5.80264">
        <ele>832</ele>
        <time>2011-06-11T16:17:01</time>
      </trkpt>
      <trkpt lat="45.34165" lon="5.80258">
        <ele>832</ele>
        <time>2011-06-11T16:17:06</time>
      </trkpt>
      <trkpt lat="45.34163" lon="5.80256">
        <ele>832</ele>
        <time>2011-06-11T16:17:07</time>
      </trkpt>
      <trkpt lat="45.34157" lon="5.80253">
        <ele>832</ele>
        <time>2011-06-11T16:17:11</time>
      </trkpt>
      <trkpt lat="45.34147" lon="5.80251">
        <ele>832</ele>
        <time>2011-06-11T16:17:17</time>
      </trkpt>
      <trkpt lat="45.34131" lon="5.80249">
        <ele>832</ele>
        <time>2011-06-11T16:17:25</time>
      </trkpt>
      <trkpt lat="45.34117" lon="5.8025">
        <ele>843</ele>
        <time>2011-06-11T16:17:31</time>
      </trkpt>
      <trkpt lat="45.34109" lon="5.80246">
        <ele>843</ele>
        <time>2011-06-11T16:17:36</time>
      </trkpt>
      <trkpt lat="45.34107" lon="5.80245">
        <ele>843</ele>
        <time>2011-06-11T16:17:37</time>
      </trkpt>
      <trkpt lat="45.34099" lon="5.80246">
        <ele>843</ele>
        <time>2011-06-11T16:17:42</time>
      </trkpt>
      <trkpt lat="45.3409" lon="5.80254">
        <ele>843</ele>
        <time>2011-06-11T16:17:48</time>
      </trkpt>
      <trkpt lat="45.34083" lon="5.8026">
        <ele>843</ele>
        <time>2011-06-11T16:17:54</time>
      </trkpt>
      <trkpt lat="45.34074" lon="5.80273">
        <ele>843</ele>
        <time>2011-06-11T16:17:59</time>
      </trkpt>
      <trkpt lat="45.34074" lon="5.80273">
        <ele>843</ele>
        <time>2011-06-11T16:17:59</time>
      </trkpt>
      <trkpt lat="45.34073" lon="5.80275">
        <ele>843</ele>
        <time>2011-06-11T16:18:00</time>
      </trkpt>
      <trkpt lat="45.34066" lon="5.80282">
        <ele>843</ele>
        <time>2011-06-11T16:18:04</time>
      </trkpt>
      <trkpt lat="45.34062" lon="5.80286">
        <ele>843</ele>
        <time>2011-06-11T16:18:11</time>
      </trkpt>
      <trkpt lat="45.34057" lon="5.80293">
        <ele>833</ele>
        <time>2011-06-11T16:18:15</time>
      </trkpt>
      <trkpt lat="45.34055" lon="5.80295">
        <ele>833</ele>
        <time>2011-06-11T16:18:19</time>
      </trkpt>
      <trkpt lat="45.34043" lon="5.80305">
        <ele>833</ele>
        <time>2011-06-11T16:18:26</time>
      </trkpt>
      <trkpt lat="45.34034" lon="5.80312">
        <ele>854</ele>
        <time>2011-06-11T16:18:30</time>
      </trkpt>
      <trkpt lat="45.34037" lon="5.80303">
        <ele>854</ele>
        <time>2011-06-11T16:18:36</time>
      </trkpt>
      <trkpt lat="45.34036" lon="5.80298">
        <ele>854</ele>
        <time>2011-06-11T16:18:41</time>
      </trkpt>
      <trkpt lat="45.34033" lon="5.80301">
        <ele>854</ele>
        <time>2011-06-11T16:18:44</time>
      </trkpt>
      <trkpt lat="45.34028" lon="5.80299">
        <ele>854</ele>
        <time>2011-06-11T16:18:49</time>
      </trkpt>
      <trkpt lat="45.34023" lon="5.80299">
        <ele>854</ele>
        <time>2011-06-11T16:18:54</time>
      </trkpt>
      <trkpt lat="45.34014" lon="5.80299">
        <ele>854</ele>
        <time>2011-06-11T16:19:00</time>
      </trkpt>
      <trkpt lat="45.34008" lon="5.80299">
        <ele>854</ele>
        <time>2011-06-11T16:19:05</time>
      </trkpt>
      <trkpt lat="45.34006" lon="5.803">
        <ele>854</ele>
        <time>2011-06-11T16:19:06</time>
      </trkpt>
      <trkpt lat="45.33997" lon="5.80299">
        <ele>854</ele>
        <time>2011-06-11T16:19:12</time>
      </trkpt>
      <trkpt lat="45.33995" lon="5.80299">
        <ele>854</ele>
        <time>2011-06-11T16:19:16</time>
      </trkpt>
      <trkpt lat="45.33993" lon="5.80297">
        <ele>854</ele>
        <time>2011-06-11T16:19:20</time>
      </trkpt>
      <trkpt lat="45.33987" lon="5.80295">
        <ele>854</ele>
        <time>2011-06-11T16:19:24</time>
      </trkpt>
      <trkpt lat="45.33979" lon="5.80298">
        <ele>854</ele>
        <time>2011-06-11T16:19:29</time>
      </trkpt>
      <trkpt lat="45.33979" lon="5.80296">
        <ele>854</ele>
        <time>2011-06-11T16:19:32</time>
      </trkpt>
      <trkpt lat="45.33974" lon="5.803">
        <ele>854</ele>
        <time>2011-06-11T16:19:37</time>
      </trkpt>
      <trkpt lat="45.3397" lon="5.80303">
        <ele>854</ele>
        <time>2011-06-11T16:19:40</time>
      </trkpt>
      <trkpt lat="45.33967" lon="5.80303">
        <ele>854</ele>
        <time>2011-06-11T16:19:43</time>
      </trkpt>
      <trkpt lat="45.33962" lon="5.803">
        <ele>854</ele>
        <time>2011-06-11T16:19:48</time>
      </trkpt>
      <trkpt lat="45.33959" lon="5.80297">
        <ele>854</ele>
        <time>2011-06-11T16:19:53</time>
      </trkpt>
      <trkpt lat="45.33952" lon="5.80299">
        <ele>868</ele>
        <time>2011-06-11T16:19:59</time>
      </trkpt>
      <trkpt lat="45.33947" lon="5.80297">
        <ele>868</ele>
        <time>2011-06-11T16:20:04</time>
      </trkpt>
      <trkpt lat="45.33943" lon="5.80296">
        <ele>868</ele>
        <time>2011-06-11T16:20:08</time>
      </trkpt>
      <trkpt lat="45.33941" lon="5.80293">
        <ele>868</ele>
        <time>2011-06-11T16:20:12</time>
      </trkpt>
      <trkpt lat="45.33932" lon="5.80297">
        <ele>868</ele>
        <time>2011-06-11T16:20:22</time>
      </trkpt>
      <trkpt lat="45.33928" lon="5.80299">
        <ele>868</ele>
        <time>2011-06-11T16:20:26</time>
      </trkpt>
      <trkpt lat="45.33922" lon="5.80302">
        <ele>868</ele>
        <time>2011-06-11T16:20:33</time>
      </trkpt>
      <trkpt lat="45.33917" lon="5.80304">
        <ele>868</ele>
        <time>2011-06-11T16:20:37</time>
      </trkpt>
      <trkpt lat="45.33915" lon="5.80303">
        <ele>868</ele>
        <time>2011-06-11T16:20:42</time>
      </trkpt>
      <trkpt lat="45.33908" lon="5.80307">
        <ele>868</ele>
        <time>2011-06-11T16:20:47</time>
      </trkpt>
      <trkpt lat="45.33899" lon="5.80309">
        <ele>868</ele>
        <time>2011-06-11T16:21:27</time>
      </trkpt>
      <trkpt lat="45.33892" lon="5.80311">
        <ele>868</ele>
        <time>2011-06-11T16:21:33</time>
      </trkpt>
      <trkpt lat="45.33887" lon="5.80307">
        <ele>868</ele>
        <time>2011-06-11T16:21:39</time>
      </trkpt>
      <trkpt lat="45.3388" lon="5.8031">
        <ele>868</ele>
        <time>2011-06-11T16:21:44</time>
      </trkpt>
      <trkpt lat="45.33875" lon="5.80313">
        <ele>870</ele>
        <time>2011-06-11T16:21:49</time>
      </trkpt>
      <trkpt lat="45.33874" lon="5.80309">
        <ele>870</ele>
        <time>2011-06-11T16:21:55</time>
      </trkpt>
      <trkpt lat="45.33869" lon="5.80307">
        <ele>870</ele>
        <time>2011-06-11T16:21:58</time>
      </trkpt>
      <trkpt lat="45.33857" lon="5.8031">
        <ele>870</ele>
        <time>2011-06-11T16:22:04</time>
      </trkpt>
      <trkpt lat="45.3384" lon="5.80309">
        <ele>870</ele>
        <time>2011-06-11T16:22:11</time>
      </trkpt>
      <trkpt lat="45.33828" lon="5.80313">
        <ele>870</ele>
        <time>2011-06-11T16:22:16</time>
      </trkpt>
      <trkpt lat="45.33819" lon="5.80312">
        <ele>870</ele>
        <time>2011-06-11T16:22:20</time>
      </trkpt>
      <trkpt lat="45.33808" lon="5.80311">
        <ele>870</ele>
        <time>2011-06-11T16:22:25</time>
      </trkpt>
      <trkpt lat="45.33802" lon="5.80307">
        <ele>870</ele>
        <time>2011-06-11T16:22:28</time>
      </trkpt>
      <trkpt lat="45.33793" lon="5.80301">
        <ele>870</ele>
        <time>2011-06-11T16:22:33</time>
      </trkpt>
      <trkpt lat="45.3379" lon="5.80299">
        <ele>864</ele>
        <time>2011-06-11T16:22:35</time>
      </trkpt>
      <trkpt lat="45.33778" lon="5.80293">
        <ele>864</ele>
        <time>2011-06-11T16:22:42</time>
      </trkpt>
      <trkpt lat="45.33768" lon="5.80289">
        <ele>873</ele>
        <time>2011-06-11T16:22:48</time>
      </trkpt>
      <trkpt lat="45.3376" lon="5.80282">
        <ele>873</ele>
        <time>2011-06-11T16:22:53</time>
      </trkpt>
      <trkpt lat="45.3375" lon="5.80272">
        <ele>873</ele>
        <time>2011-06-11T16:22:59</time>
      </trkpt>
      <trkpt lat="45.33736" lon="5.80259">
        <ele>873</ele>
        <time>2011-06-11T16:23:07</time>
      </trkpt>
      <trkpt lat="45.33724" lon="5.8025">
        <ele>873</ele>
        <time>2011-06-11T16:23:14</time>
      </trkpt>
      <trkpt lat="45.33715" lon="5.80244">
        <ele>873</ele>
        <time>2011-06-11T16:23:19</time>
      </trkpt>
      <trkpt lat="45.33703" lon="5.8024">
        <ele>876</ele>
        <time>2011-06-11T16:23:25</time>
      </trkpt>
      <trkpt lat="45.33698" lon="5.80239">
        <ele>876</ele>
        <time>2011-06-11T16:23:28</time>
      </trkpt>
      <trkpt lat="45.33683" lon="5.80246">
        <ele>876</ele>
        <time>2011-06-11T16:23:35</time>
      </trkpt>
      <trkpt lat="45.33675" lon="5.80255">
        <ele>876</ele>
        <time>2011-06-11T16:23:39</time>
      </trkpt>
      <trkpt lat="45.33668" lon="5.80261">
        <ele>876</ele>
        <time>2011-06-11T16:23:43</time>
      </trkpt>
      <trkpt lat="45.3366" lon="5.80263">
        <ele>876</ele>
        <time>2011-06-11T16:23:49</time>
      </trkpt>
      <trkpt lat="45.33652" lon="5.80271">
        <ele>876</ele>
        <time>2011-06-11T16:23:53</time>
      </trkpt>
      <trkpt lat="45.33639" lon="5.80278">
        <ele>876</ele>
        <time>2011-06-11T16:23:59</time>
      </trkpt>
      <trkpt lat="45.3363" lon="5.80278">
        <ele>876</ele>
        <time>2011-06-11T16:24:04</time>
      </trkpt>
      <trkpt lat="45.33616" lon="5.80283">
        <ele>884</ele>
        <time>2011-06-11T16:24:10</time>
      </trkpt>
      <trkpt lat="45.33606" lon="5.80285">
        <ele>884</ele>
        <time>2011-06-11T16:24:14</time>
      </trkpt>
      <trkpt lat="45.33595" lon="5.80286">
        <ele>884</ele>
        <time>2011-06-11T16:24:18</time>
      </trkpt>
      <trkpt lat="45.33593" lon="5.80287">
        <ele>884</ele>
        <time>2011-06-11T16:24:19</time>
      </trkpt>
      <trkpt lat="45.33581" lon="5.80291">
        <ele>884</ele>
        <time>2011-06-11T16:24:25</time>
      </trkpt>
      <trkpt lat="45.33579" lon="5.80291">
        <ele>884</ele>
        <time>2011-06-11T16:24:26</time>
      </trkpt>
      <trkpt lat="45.33572" lon="5.80289">
        <ele>884</ele>
        <time>2011-06-11T16:24:29</time>
      </trkpt>
      <trkpt lat="45.33563" lon="5.8029">
        <ele>884</ele>
        <time>2011-06-11T16:24:34</time>
      </trkpt>
      <trkpt lat="45.33562" lon="5.80291">
        <ele>884</ele>
        <time>2011-06-11T16:24:35</time>
      </trkpt>
      <trkpt lat="45.33553" lon="5.80294">
        <ele>875</ele>
        <time>2011-06-11T16:24:40</time>
      </trkpt>
      <trkpt lat="45.3355" lon="5.80294">
        <ele>875</ele>
        <time>2011-06-11T16:24:42</time>
      </trkpt>
      <trkpt lat="45.33543" lon="5.80286">
        <ele>884</ele>
        <time>2011-06-11T16:24:47</time>
      </trkpt>
      <trkpt lat="45.33541" lon="5.80285">
        <ele>885</ele>
        <time>2011-06-11T16:24:48</time>
      </trkpt>
      <trkpt lat="45.33524" lon="5.80285">
        <ele>885</ele>
        <time>2011-06-11T16:24:55</time>
      </trkpt>
      <trkpt lat="45.33513" lon="5.80276">
        <ele>885</ele>
        <time>2011-06-11T16:25:00</time>
      </trkpt>
      <trkpt lat="45.33505" lon="5.80274">
        <ele>885</ele>
        <time>2011-06-11T16:25:04</time>
      </trkpt>
      <trkpt lat="45.33492" lon="5.80267">
        <ele>885</ele>
        <time>2011-06-11T16:25:10</time>
      </trkpt>
      <trkpt lat="45.3349" lon="5.80264">
        <ele>885</ele>
        <time>2011-06-11T16:25:12</time>
      </trkpt>
      <trkpt lat="45.33479" lon="5.80256">
        <ele>885</ele>
        <time>2011-06-11T16:25:18</time>
      </trkpt>
      <trkpt lat="45.33471" lon="5.8025">
        <ele>885</ele>
        <time>2011-06-11T16:25:23</time>
      </trkpt>
      <trkpt lat="45.33467" lon="5.80249">
        <ele>885</ele>
        <time>2011-06-11T16:25:25</time>
      </trkpt>
      <trkpt lat="45.33457" lon="5.80242">
        <ele>873</ele>
        <time>2011-06-11T16:25:30</time>
      </trkpt>
      <trkpt lat="45.33448" lon="5.80236">
        <ele>873</ele>
        <time>2011-06-11T16:25:34</time>
      </trkpt>
      <trkpt lat="45.33436" lon="5.80229">
        <ele>873</ele>
        <time>2011-06-11T16:25:39</time>
      </trkpt>
      <trkpt lat="45.33426" lon="5.80224">
        <ele>873</ele>
        <time>2011-06-11T16:25:44</time>
      </trkpt>
      <trkpt lat="45.33419" lon="5.80215">
        <ele>873</ele>
        <time>2011-06-11T16:25:48</time>
      </trkpt>
      <trkpt lat="45.3341" lon="5.80206">
        <ele>884</ele>
        <time>2011-06-11T16:25:53</time>
      </trkpt>
      <trkpt lat="45.33399" lon="5.802">
        <ele>884</ele>
        <time>2011-06-11T16:25:58</time>
      </trkpt>
      <trkpt lat="45.33394" lon="5.80195">
        <ele>884</ele>
        <time>2011-06-11T16:26:01</time>
      </trkpt>
      <trkpt lat="45.33385" lon="5.8019">
        <ele>884</ele>
        <time>2011-06-11T16:26:06</time>
      </trkpt>
      <trkpt lat="45.33379" lon="5.80183">
        <ele>884</ele>
        <time>2011-06-11T16:26:10</time>
      </trkpt>
      <trkpt lat="45.33371" lon="5.80175">
        <ele>874</ele>
        <time>2011-06-11T16:26:15</time>
      </trkpt>
      <trkpt lat="45.33362" lon="5.80167">
        <ele>874</ele>
        <time>2011-06-11T16:26:20</time>
      </trkpt>
      <trkpt lat="45.33354" lon="5.80159">
        <ele>874</ele>
        <time>2011-06-11T16:26:24</time>
      </trkpt>
      <trkpt lat="45.33345" lon="5.80151">
        <ele>874</ele>
        <time>2011-06-11T16:26:29</time>
      </trkpt>
      <trkpt lat="45.33338" lon="5.80149">
        <ele>874</ele>
        <time>2011-06-11T16:26:32</time>
      </trkpt>
      <trkpt lat="45.33327" lon="5.80139">
        <ele>874</ele>
        <time>2011-06-11T16:26:38</time>
      </trkpt>
      <trkpt lat="45.3332" lon="5.80134">
        <ele>874</ele>
        <time>2011-06-11T16:26:41</time>
      </trkpt>
      <trkpt lat="45.33311" lon="5.80126">
        <ele>874</ele>
        <time>2011-06-11T16:26:46</time>
      </trkpt>
      <trkpt lat="45.33299" lon="5.80125">
        <ele>891</ele>
        <time>2011-06-11T16:26:51</time>
      </trkpt>
      <trkpt lat="45.33288" lon="5.80122">
        <ele>880</ele>
        <time>2011-06-11T16:26:56</time>
      </trkpt>
      <trkpt lat="45.33277" lon="5.80116">
        <ele>880</ele>
        <time>2011-06-11T16:27:02</time>
      </trkpt>
      <trkpt lat="45.33269" lon="5.80112">
        <ele>880</ele>
        <time>2011-06-11T16:27:07</time>
      </trkpt>
      <trkpt lat="45.33259" lon="5.80105">
        <ele>880</ele>
        <time>2011-06-11T16:27:12</time>
      </trkpt>
      <trkpt lat="45.33251" lon="5.801">
        <ele>880</ele>
        <time>2011-06-11T16:27:16</time>
      </trkpt>
      <trkpt lat="45.33241" lon="5.80091">
        <ele>880</ele>
        <time>2011-06-11T16:27:21</time>
      </trkpt>
      <trkpt lat="45.33239" lon="5.80087">
        <ele>880</ele>
        <time>2011-06-11T16:27:23</time>
      </trkpt>
      <trkpt lat="45.33234" lon="5.80083">
        <ele>880</ele>
        <time>2011-06-11T16:27:26</time>
      </trkpt>
      <trkpt lat="45.33234" lon="5.80083">
        <ele>880</ele>
        <time>2011-06-11T16:27:26</time>
      </trkpt>
      <trkpt lat="45.33232" lon="5.80081">
        <ele>880</ele>
        <time>2011-06-11T16:27:27</time>
      </trkpt>
      <trkpt lat="45.33221" lon="5.8007">
        <ele>880</ele>
        <time>2011-06-11T16:27:33</time>
      </trkpt>
      <trkpt lat="45.33214" lon="5.80064">
        <ele>880</ele>
        <time>2011-06-11T16:27:37</time>
      </trkpt>
      <trkpt lat="45.33206" lon="5.80063">
        <ele>878</ele>
        <time>2011-06-11T16:27:41</time>
      </trkpt>
      <trkpt lat="45.33194" lon="5.8006">
        <ele>878</ele>
        <time>2011-06-11T16:27:47</time>
      </trkpt>
      <trkpt lat="45.33182" lon="5.80056">
        <ele>878</ele>
        <time>2011-06-11T16:27:53</time>
      </trkpt>
      <trkpt lat="45.33178" lon="5.80054">
        <ele>878</ele>
        <time>2011-06-11T16:27:55</time>
      </trkpt>
      <trkpt lat="45.33164" lon="5.80051">
        <ele>878</ele>
        <time>2011-06-11T16:28:02</time>
      </trkpt>
      <trkpt lat="45.33153" lon="5.80049">
        <ele>878</ele>
        <time>2011-06-11T16:28:07</time>
      </trkpt>
      <trkpt lat="45.33147" lon="5.8005">
        <ele>878</ele>
        <time>2011-06-11T16:28:10</time>
      </trkpt>
      <trkpt lat="45.33135" lon="5.80045">
        <ele>878</ele>
        <time>2011-06-11T16:28:16</time>
      </trkpt>
      <trkpt lat="45.33123" lon="5.8004">
        <ele>884</ele>
        <time>2011-06-11T16:28:22</time>
      </trkpt>
      <trkpt lat="45.33112" lon="5.80034">
        <ele>884</ele>
        <time>2011-06-11T16:28:27</time>
      </trkpt>
      <trkpt lat="45.33102" lon="5.80028">
        <ele>884</ele>
        <time>2011-06-11T16:28:32</time>
      </trkpt>
      <trkpt lat="45.33092" lon="5.80018">
        <ele>884</ele>
        <time>2011-06-11T16:28:38</time>
      </trkpt>
      <trkpt lat="45.33083" lon="5.80012">
        <ele>884</ele>
        <time>2011-06-11T16:28:43</time>
      </trkpt>
      <trkpt lat="45.33072" lon="5.80005">
        <ele>884</ele>
        <time>2011-06-11T16:28:48</time>
      </trkpt>
      <trkpt lat="45.33061" lon="5.79998">
        <ele>884</ele>
        <time>2011-06-11T16:28:54</time>
      </trkpt>
      <trkpt lat="45.33051" lon="5.79992">
        <ele>884</ele>
        <time>2011-06-11T16:29:00</time>
      </trkpt>
      <trkpt lat="45.33042" lon="5.79986">
        <ele>879</ele>
        <time>2011-06-11T16:29:05</time>
      </trkpt>
      <trkpt lat="45.33029" lon="5.79979">
        <ele>879</ele>
        <time>2011-06-11T16:29:11</time>
      </trkpt>
      <trkpt lat="45.33019" lon="5.79972">
        <ele>879</ele>
        <time>2011-06-11T16:29:16</time>
      </trkpt>
      <trkpt lat="45.33011" lon="5.79966">
        <ele>879</ele>
        <time>2011-06-11T16:29:21</time>
      </trkpt>
      <trkpt lat="45.33001" lon="5.79958">
        <ele>886</ele>
        <time>2011-06-11T16:29:27</time>
      </trkpt>
      <trkpt lat="45.32999" lon="5.79956">
        <ele>886</ele>
        <time>2011-06-11T16:29:28</time>
      </trkpt>
      <trkpt lat="45.32986" lon="5.79949">
        <ele>886</ele>
        <time>2011-06-11T16:29:33</time>
      </trkpt>
      <trkpt lat="45.32976" lon="5.79943">
        <ele>886</ele>
        <time>2011-06-11T16:29:37</time>
      </trkpt>
      <trkpt lat="45.3297" lon="5.79937">
        <ele>886</ele>
        <time>2011-06-11T16:29:41</time>
      </trkpt>
      <trkpt lat="45.32956" lon="5.79931">
        <ele>886</ele>
        <time>2011-06-11T16:29:48</time>
      </trkpt>
      <trkpt lat="45.32943" lon="5.79924">
        <ele>886</ele>
        <time>2011-06-11T16:29:54</time>
      </trkpt>
      <trkpt lat="45.32932" lon="5.79916">
        <ele>886</ele>
        <time>2011-06-11T16:30:00</time>
      </trkpt>
      <trkpt lat="45.32926" lon="5.7991">
        <ele>886</ele>
        <time>2011-06-11T16:30:04</time>
      </trkpt>
      <trkpt lat="45.32925" lon="5.79919">
        <ele>886</ele>
        <time>2011-06-11T16:30:09</time>
      </trkpt>
      <trkpt lat="45.32925" lon="5.79922">
        <ele>886</ele>
        <time>2011-06-11T16:30:10</time>
      </trkpt>
      <trkpt lat="45.32926" lon="5.7993">
        <ele>886</ele>
        <time>2011-06-11T16:30:13</time>
      </trkpt>
      <trkpt lat="45.32925" lon="5.79944">
        <ele>886</ele>
        <time>2011-06-11T16:30:18</time>
      </trkpt>
      <trkpt lat="45.32925" lon="5.79947">
        <ele>886</ele>
        <time>2011-06-11T16:30:19</time>
      </trkpt>
      <trkpt lat="45.32923" lon="5.79965">
        <ele>883</ele>
        <time>2011-06-11T16:30:25</time>
      </trkpt>
      <trkpt lat="45.32926" lon="5.79978">
        <ele>883</ele>
        <time>2011-06-11T16:30:30</time>
      </trkpt>
      <trkpt lat="45.3293" lon="5.79993">
        <ele>883</ele>
        <time>2011-06-11T16:30:35</time>
      </trkpt>
      <trkpt lat="45.32938" lon="5.80006">
        <ele>883</ele>
        <time>2011-06-11T16:30:41</time>
      </trkpt>
      <trkpt lat="45.32949" lon="5.80018">
        <ele>883</ele>
        <time>2011-06-11T16:30:48</time>
      </trkpt>
      <trkpt lat="45.32961" lon="5.80025">
        <ele>879</ele>
        <time>2011-06-11T16:30:53</time>
      </trkpt>
      <trkpt lat="45.32963" lon="5.80031">
        <ele>879</ele>
        <time>2011-06-11T16:30:57</time>
      </trkpt>
      <trkpt lat="45.32964" lon="5.80035">
        <ele>879</ele>
        <time>2011-06-11T16:31:01</time>
      </trkpt>
      <trkpt lat="45.32961" lon="5.80034">
        <ele>879</ele>
        <time>2011-06-11T16:31:06</time>
      </trkpt>
      <trkpt lat="45.32948" lon="5.8002">
        <ele>883</ele>
        <time>2011-06-11T16:31:13</time>
      </trkpt>
      <trkpt lat="45.32942" lon="5.80021">
        <ele>883</ele>
        <time>2011-06-11T16:31:16</time>
      </trkpt>
      <trkpt lat="45.32938" lon="5.80027">
        <ele>883</ele>
        <time>2011-06-11T16:31:20</time>
      </trkpt>
      <trkpt lat="45.32948" lon="5.80036">
        <ele>883</ele>
        <time>2011-06-11T16:31:26</time>
      </trkpt>
      <trkpt lat="45.32954" lon="5.80043">
        <ele>883</ele>
        <time>2011-06-11T16:31:30</time>
      </trkpt>
      <trkpt lat="45.32968" lon="5.80049">
        <ele>885</ele>
        <time>2011-06-11T16:31:36</time>
      </trkpt>
      <trkpt lat="45.32974" lon="5.80058">
        <ele>885</ele>
        <time>2011-06-11T16:31:41</time>
      </trkpt>
      <trkpt lat="45.32974" lon="5.80069">
        <ele>885</ele>
        <time>2011-06-11T16:31:45</time>
      </trkpt>
      <trkpt lat="45.32978" lon="5.8008">
        <ele>885</ele>
        <time>2011-06-11T16:31:50</time>
      </trkpt>
      <trkpt lat="45.32989" lon="5.80089">
        <ele>885</ele>
        <time>2011-06-11T16:31:56</time>
      </trkpt>
      <trkpt lat="45.33" lon="5.80095">
        <ele>885</ele>
        <time>2011-06-11T16:32:00</time>
      </trkpt>
      <trkpt lat="45.33014" lon="5.80097">
        <ele>885</ele>
        <time>2011-06-11T16:32:06</time>
      </trkpt>
      <trkpt lat="45.33033" lon="5.80104">
        <ele>885</ele>
        <time>2011-06-11T16:32:13</time>
      </trkpt>
      <trkpt lat="45.33036" lon="5.80102">
        <ele>885</ele>
        <time>2011-06-11T16:32:14</time>
      </trkpt>
      <trkpt lat="45.33044" lon="5.80109">
        <ele>881</ele>
        <time>2011-06-11T16:32:19</time>
      </trkpt>
      <trkpt lat="45.33047" lon="5.80116">
        <ele>881</ele>
        <time>2011-06-11T16:32:23</time>
      </trkpt>
      <trkpt lat="45.33053" lon="5.80132">
        <ele>888</ele>
        <time>2011-06-11T16:32:28</time>
      </trkpt>
      <trkpt lat="45.33057" lon="5.80142">
        <ele>888</ele>
        <time>2011-06-11T16:32:32</time>
      </trkpt>
      <trkpt lat="45.33065" lon="5.80154">
        <ele>888</ele>
        <time>2011-06-11T16:32:37</time>
      </trkpt>
      <trkpt lat="45.33076" lon="5.80162">
        <ele>888</ele>
        <time>2011-06-11T16:32:41</time>
      </trkpt>
      <trkpt lat="45.33094" lon="5.80166">
        <ele>888</ele>
        <time>2011-06-11T16:32:46</time>
      </trkpt>
      <trkpt lat="45.33106" lon="5.80172">
        <ele>888</ele>
        <time>2011-06-11T16:32:50</time>
      </trkpt>
      <trkpt lat="45.33107" lon="5.80174">
        <ele>888</ele>
        <time>2011-06-11T16:32:51</time>
      </trkpt>
      <trkpt lat="45.33106" lon="5.80192">
        <ele>888</ele>
        <time>2011-06-11T16:32:56</time>
      </trkpt>
      <trkpt lat="45.33109" lon="5.80197">
        <ele>888</ele>
        <time>2011-06-11T16:32:58</time>
      </trkpt>
      <trkpt lat="45.33119" lon="5.80204">
        <ele>888</ele>
        <time>2011-06-11T16:33:03</time>
      </trkpt>
      <trkpt lat="45.33126" lon="5.80214">
        <ele>876</ele>
        <time>2011-06-11T16:33:08</time>
      </trkpt>
      <trkpt lat="45.33126" lon="5.80231">
        <ele>876</ele>
        <time>2011-06-11T16:33:13</time>
      </trkpt>
      <trkpt lat="45.33131" lon="5.80242">
        <ele>876</ele>
        <time>2011-06-11T16:33:17</time>
      </trkpt>
      <trkpt lat="45.33135" lon="5.8025">
        <ele>876</ele>
        <time>2011-06-11T16:33:20</time>
      </trkpt>
      <trkpt lat="45.33137" lon="5.80265">
        <ele>876</ele>
        <time>2011-06-11T16:33:25</time>
      </trkpt>
      <trkpt lat="45.33144" lon="5.8028">
        <ele>876</ele>
        <time>2011-06-11T16:33:32</time>
      </trkpt>
      <trkpt lat="45.33148" lon="5.80291">
        <ele>876</ele>
        <time>2011-06-11T16:33:36</time>
      </trkpt>
      <trkpt lat="45.33157" lon="5.80306">
        <ele>883</ele>
        <time>2011-06-11T16:33:42</time>
      </trkpt>
      <trkpt lat="45.33161" lon="5.80321">
        <ele>883</ele>
        <time>2011-06-11T16:33:47</time>
      </trkpt>
      <trkpt lat="45.33165" lon="5.80328">
        <ele>883</ele>
        <time>2011-06-11T16:33:50</time>
      </trkpt>
      <trkpt lat="45.33176" lon="5.80336">
        <ele>883</ele>
        <time>2011-06-11T16:33:55</time>
      </trkpt>
      <trkpt lat="45.33176" lon="5.80337">
        <ele>883</ele>
        <time>2011-06-11T16:33:56</time>
      </trkpt>
      <trkpt lat="45.33184" lon="5.8035">
        <ele>883</ele>
        <time>2011-06-11T16:34:03</time>
      </trkpt>
      <trkpt lat="45.33194" lon="5.80358">
        <ele>883</ele>
        <time>2011-06-11T16:34:07</time>
      </trkpt>
      <trkpt lat="45.33195" lon="5.80377">
        <ele>876</ele>
        <time>2011-06-11T16:34:14</time>
      </trkpt>
      <trkpt lat="45.33193" lon="5.80382">
        <ele>876</ele>
        <time>2011-06-11T16:34:16</time>
      </trkpt>
      <trkpt lat="45.33196" lon="5.80388">
        <ele>876</ele>
        <time>2011-06-11T16:34:19</time>
      </trkpt>
      <trkpt lat="45.33191" lon="5.80395">
        <ele>876</ele>
        <time>2011-06-11T16:34:24</time>
      </trkpt>
      <trkpt lat="45.33194" lon="5.804">
        <ele>876</ele>
        <time>2011-06-11T16:34:27</time>
      </trkpt>
      <trkpt lat="45.33199" lon="5.80413">
        <ele>876</ele>
        <time>2011-06-11T16:34:32</time>
      </trkpt>
      <trkpt lat="45.33201" lon="5.80417">
        <ele>876</ele>
        <time>2011-06-11T16:34:34</time>
      </trkpt>
      <trkpt lat="45.33209" lon="5.80422">
        <ele>873</ele>
        <time>2011-06-11T16:34:38</time>
      </trkpt>
      <trkpt lat="45.33218" lon="5.80425">
        <ele>873</ele>
        <time>2011-06-11T16:34:42</time>
      </trkpt>
      <trkpt lat="45.33223" lon="5.8043">
        <ele>873</ele>
        <time>2011-06-11T16:34:45</time>
      </trkpt>
      <trkpt lat="45.33226" lon="5.80434">
        <ele>873</ele>
        <time>2011-06-11T16:34:47</time>
      </trkpt>
      <trkpt lat="45.33226" lon="5.80434">
        <ele>873</ele>
        <time>2011-06-11T16:34:47</time>
      </trkpt>
      <trkpt lat="45.33232" lon="5.80438">
        <ele>873</ele>
        <time>2011-06-11T16:34:50</time>
      </trkpt>
      <trkpt lat="45.33242" lon="5.80442">
        <ele>873</ele>
        <time>2011-06-11T16:34:54</time>
      </trkpt>
      <trkpt lat="45.33244" lon="5.80443">
        <ele>873</ele>
        <time>2011-06-11T16:34:55</time>
      </trkpt>
      <trkpt lat="45.33262" lon="5.80443">
        <ele>873</ele>
        <time>2011-06-11T16:35:03</time>
      </trkpt>
      <trkpt lat="45.33273" lon="5.80443">
        <ele>873</ele>
        <time>2011-06-11T16:35:08</time>
      </trkpt>
      <trkpt lat="45.33284" lon="5.80443">
        <ele>873</ele>
        <time>2011-06-11T16:35:13</time>
      </trkpt>
      <trkpt lat="45.33294" lon="5.80441">
        <ele>871</ele>
        <time>2011-06-11T16:35:18</time>
      </trkpt>
      <trkpt lat="45.33307" lon="5.80438">
        <ele>871</ele>
        <time>2011-06-11T16:35:24</time>
      </trkpt>
      <trkpt lat="45.33315" lon="5.80434">
        <ele>871</ele>
        <time>2011-06-11T16:35:28</time>
      </trkpt>
      <trkpt lat="45.33315" lon="5.80432">
        <ele>871</ele>
        <time>2011-06-11T16:35:33</time>
      </trkpt>
      <trkpt lat="45.33325" lon="5.80424">
        <ele>871</ele>
        <time>2011-06-11T16:35:39</time>
      </trkpt>
      <trkpt lat="45.33333" lon="5.80418">
        <ele>871</ele>
        <time>2011-06-11T16:35:44</time>
      </trkpt>
      <trkpt lat="45.33348" lon="5.80415">
        <ele>871</ele>
        <time>2011-06-11T16:35:49</time>
      </trkpt>
      <trkpt lat="45.33354" lon="5.80416">
        <ele>871</ele>
        <time>2011-06-11T16:35:51</time>
      </trkpt>
      <trkpt lat="45.33366" lon="5.80419">
        <ele>871</ele>
        <time>2011-06-11T16:35:57</time>
      </trkpt>
      <trkpt lat="45.33369" lon="5.80423">
        <ele>871</ele>
        <time>2011-06-11T16:35:59</time>
      </trkpt>
      <trkpt lat="45.33371" lon="5.80437">
        <ele>871</ele>
        <time>2011-06-11T16:36:03</time>
      </trkpt>
      <trkpt lat="45.33376" lon="5.80446">
        <ele>852</ele>
        <time>2011-06-11T16:36:08</time>
      </trkpt>
      <trkpt lat="45.33378" lon="5.80446">
        <ele>852</ele>
        <time>2011-06-11T16:36:09</time>
      </trkpt>
      <trkpt lat="45.33385" lon="5.80462">
        <ele>851</ele>
        <time>2011-06-11T16:36:14</time>
      </trkpt>
      <trkpt lat="45.33392" lon="5.80472">
        <ele>851</ele>
        <time>2011-06-11T16:36:18</time>
      </trkpt>
      <trkpt lat="45.33393" lon="5.80483">
        <ele>851</ele>
        <time>2011-06-11T16:36:21</time>
      </trkpt>
      <trkpt lat="45.33393" lon="5.80485">
        <ele>851</ele>
        <time>2011-06-11T16:36:22</time>
      </trkpt>
      <trkpt lat="45.33395" lon="5.80486">
        <ele>851</ele>
        <time>2011-06-11T16:36:24</time>
      </trkpt>
      <trkpt lat="45.33401" lon="5.80492">
        <ele>851</ele>
        <time>2011-06-11T16:36:28</time>
      </trkpt>
      <trkpt lat="45.33405" lon="5.80495">
        <ele>851</ele>
        <time>2011-06-11T16:36:31</time>
      </trkpt>
      <trkpt lat="45.33416" lon="5.80498">
        <ele>851</ele>
        <time>2011-06-11T16:36:36</time>
      </trkpt>
      <trkpt lat="45.33427" lon="5.80504">
        <ele>851</ele>
        <time>2011-06-11T16:36:41</time>
      </trkpt>
      <trkpt lat="45.33434" lon="5.80515">
        <ele>851</ele>
        <time>2011-06-11T16:36:47</time>
      </trkpt>
      <trkpt lat="45.33438" lon="5.80521">
        <ele>851</ele>
        <time>2011-06-11T16:36:50</time>
      </trkpt>
      <trkpt lat="45.33444" lon="5.80526">
        <ele>851</ele>
        <time>2011-06-11T16:36:54</time>
      </trkpt>
      <trkpt lat="45.33453" lon="5.80541">
        <ele>851</ele>
        <time>2011-06-11T16:37:00</time>
      </trkpt>
      <trkpt lat="45.33455" lon="5.80548">
        <ele>839</ele>
        <time>2011-06-11T16:37:03</time>
      </trkpt>
      <trkpt lat="45.33463" lon="5.80551">
        <ele>828</ele>
        <time>2011-06-11T16:37:07</time>
      </trkpt>
      <trkpt lat="45.33466" lon="5.80571">
        <ele>828</ele>
        <time>2011-06-11T16:37:13</time>
      </trkpt>
      <trkpt lat="45.33474" lon="5.80569">
        <ele>828</ele>
        <time>2011-06-11T16:37:19</time>
      </trkpt>
      <trkpt lat="45.33484" lon="5.80572">
        <ele>828</ele>
        <time>2011-06-11T16:37:31</time>
      </trkpt>
      <trkpt lat="45.33479" lon="5.80578">
        <ele>828</ele>
        <time>2011-06-11T16:37:35</time>
      </trkpt>
      <trkpt lat="45.33477" lon="5.80582">
        <ele>828</ele>
        <time>2011-06-11T16:37:40</time>
      </trkpt>
      <trkpt lat="45.3348" lon="5.80582">
        <ele>828</ele>
        <time>2011-06-11T16:37:47</time>
      </trkpt>
      <trkpt lat="45.33491" lon="5.80594">
        <ele>828</ele>
        <time>2011-06-11T16:38:07</time>
      </trkpt>
      <trkpt lat="45.33489" lon="5.80602">
        <ele>828</ele>
        <time>2011-06-11T16:38:12</time>
      </trkpt>
      <trkpt lat="45.3349" lon="5.80603">
        <ele>828</ele>
        <time>2011-06-11T16:38:13</time>
      </trkpt>
      <trkpt lat="45.33495" lon="5.80605">
        <ele>828</ele>
        <time>2011-06-11T16:38:17</time>
      </trkpt>
      <trkpt lat="45.33506" lon="5.80597">
        <ele>828</ele>
        <time>2011-06-11T16:38:23</time>
      </trkpt>
      <trkpt lat="45.33506" lon="5.80588">
        <ele>828</ele>
        <time>2011-06-11T16:38:27</time>
      </trkpt>
      <trkpt lat="45.33512" lon="5.80581">
        <ele>828</ele>
        <time>2011-06-11T16:38:32</time>
      </trkpt>
      <trkpt lat="45.33519" lon="5.80579">
        <ele>828</ele>
        <time>2011-06-11T16:38:41</time>
      </trkpt>
      <trkpt lat="45.33525" lon="5.80597">
        <ele>828</ele>
        <time>2011-06-11T16:38:47</time>
      </trkpt>
      <trkpt lat="45.33529" lon="5.80607">
        <ele>828</ele>
        <time>2011-06-11T16:38:51</time>
      </trkpt>
      <trkpt lat="45.33532" lon="5.80605">
        <ele>828</ele>
        <time>2011-06-11T16:38:52</time>
      </trkpt>
      <trkpt lat="45.33539" lon="5.80598">
        <ele>828</ele>
        <time>2011-06-11T16:38:58</time>
      </trkpt>
      <trkpt lat="45.33544" lon="5.8059">
        <ele>819</ele>
        <time>2011-06-11T16:39:01</time>
      </trkpt>
      <trkpt lat="45.33543" lon="5.80587">
        <ele>819</ele>
        <time>2011-06-11T16:39:06</time>
      </trkpt>
      <trkpt lat="45.33547" lon="5.80584">
        <ele>819</ele>
        <time>2011-06-11T16:39:10</time>
      </trkpt>
      <trkpt lat="45.33574" lon="5.80565">
        <ele>819</ele>
        <time>2011-06-11T16:39:27</time>
      </trkpt>
      <trkpt lat="45.33576" lon="5.80565">
        <ele>819</ele>
        <time>2011-06-11T16:39:32</time>
      </trkpt>
      <trkpt lat="45.33574" lon="5.80569">
        <ele>819</ele>
        <time>2011-06-11T16:39:35</time>
      </trkpt>
      <trkpt lat="45.33563" lon="5.80574">
        <ele>819</ele>
        <time>2011-06-11T16:39:41</time>
      </trkpt>
      <trkpt lat="45.33557" lon="5.80579">
        <ele>819</ele>
        <time>2011-06-11T16:39:46</time>
      </trkpt>
      <trkpt lat="45.3356" lon="5.80571">
        <ele>819</ele>
        <time>2011-06-11T16:39:54</time>
      </trkpt>
      <trkpt lat="45.33566" lon="5.80568">
        <ele>819</ele>
        <time>2011-06-11T16:39:59</time>
      </trkpt>
      <trkpt lat="45.33578" lon="5.80567">
        <ele>819</ele>
        <time>2011-06-11T16:40:05</time>
      </trkpt>
      <trkpt lat="45.33588" lon="5.8057">
        <ele>819</ele>
        <time>2011-06-11T16:40:10</time>
      </trkpt>
      <trkpt lat="45.33589" lon="5.80569">
        <ele>819</ele>
        <time>2011-06-11T16:40:11</time>
      </trkpt>
      <trkpt lat="45.33594" lon="5.80563">
        <ele>819</ele>
        <time>2011-06-11T16:40:15</time>
      </trkpt>
      <trkpt lat="45.3361" lon="5.80564">
        <ele>819</ele>
        <time>2011-06-11T16:40:22</time>
      </trkpt>
      <trkpt lat="45.33616" lon="5.80566">
        <ele>819</ele>
        <time>2011-06-11T16:40:26</time>
      </trkpt>
      <trkpt lat="45.33619" lon="5.80568">
        <ele>819</ele>
        <time>2011-06-11T16:40:28</time>
      </trkpt>
      <trkpt lat="45.33628" lon="5.80582">
        <ele>827</ele>
        <time>2011-06-11T16:40:34</time>
      </trkpt>
      <trkpt lat="45.33634" lon="5.80587">
        <ele>827</ele>
        <time>2011-06-11T16:40:37</time>
      </trkpt>
      <trkpt lat="45.33636" lon="5.80594">
        <ele>827</ele>
        <time>2011-06-11T16:40:40</time>
      </trkpt>
      <trkpt lat="45.33637" lon="5.80604">
        <ele>827</ele>
        <time>2011-06-11T16:40:45</time>
      </trkpt>
      <trkpt lat="45.33642" lon="5.80607">
        <ele>827</ele>
        <time>2011-06-11T16:40:48</time>
      </trkpt>
      <trkpt lat="45.33648" lon="5.8061">
        <ele>827</ele>
        <time>2011-06-11T16:40:55</time>
      </trkpt>
      <trkpt lat="45.3366" lon="5.80606">
        <ele>827</ele>
        <time>2011-06-11T16:41:01</time>
      </trkpt>
      <trkpt lat="45.33669" lon="5.80605">
        <ele>827</ele>
        <time>2011-06-11T16:41:06</time>
      </trkpt>
      <trkpt lat="45.33675" lon="5.80602">
        <ele>827</ele>
        <time>2011-06-11T16:41:08</time>
      </trkpt>
      <trkpt lat="45.33685" lon="5.80607">
        <ele>827</ele>
        <time>2011-06-11T16:41:13</time>
      </trkpt>
      <trkpt lat="45.33698" lon="5.80614">
        <ele>827</ele>
        <time>2011-06-11T16:41:17</time>
      </trkpt>
      <trkpt lat="45.33692" lon="5.80634">
        <ele>810</ele>
        <time>2011-06-11T16:41:22</time>
      </trkpt>
      <trkpt lat="45.33691" lon="5.8064">
        <ele>810</ele>
        <time>2011-06-11T16:41:24</time>
      </trkpt>
      <trkpt lat="45.33695" lon="5.80647">
        <ele>810</ele>
        <time>2011-06-11T16:41:29</time>
      </trkpt>
      <trkpt lat="45.33696" lon="5.80649">
        <ele>810</ele>
        <time>2011-06-11T16:41:30</time>
      </trkpt>
      <trkpt lat="45.33688" lon="5.80667">
        <ele>810</ele>
        <time>2011-06-11T16:41:36</time>
      </trkpt>
      <trkpt lat="45.33686" lon="5.8067">
        <ele>810</ele>
        <time>2011-06-11T16:41:37</time>
      </trkpt>
      <trkpt lat="45.33676" lon="5.80689">
        <ele>810</ele>
        <time>2011-06-11T16:41:43</time>
      </trkpt>
      <trkpt lat="45.33662" lon="5.80696">
        <ele>810</ele>
        <time>2011-06-11T16:41:48</time>
      </trkpt>
      <trkpt lat="45.33652" lon="5.80701">
        <ele>810</ele>
        <time>2011-06-11T16:41:54</time>
      </trkpt>
      <trkpt lat="45.33645" lon="5.80703">
        <ele>810</ele>
        <time>2011-06-11T16:41:59</time>
      </trkpt>
      <trkpt lat="45.33638" lon="5.80706">
        <ele>810</ele>
        <time>2011-06-11T16:42:04</time>
      </trkpt>
      <trkpt lat="45.33636" lon="5.80705">
        <ele>810</ele>
        <time>2011-06-11T16:42:06</time>
      </trkpt>
      <trkpt lat="45.33625" lon="5.80696">
        <ele>810</ele>
        <time>2011-06-11T16:42:12</time>
      </trkpt>
      <trkpt lat="45.33616" lon="5.8068">
        <ele>805</ele>
        <time>2011-06-11T16:42:19</time>
      </trkpt>
      <trkpt lat="45.33602" lon="5.80675">
        <ele>805</ele>
        <time>2011-06-11T16:42:24</time>
      </trkpt>
      <trkpt lat="45.33595" lon="5.80673">
        <ele>805</ele>
        <time>2011-06-11T16:42:30</time>
      </trkpt>
      <trkpt lat="45.33596" lon="5.80672">
        <ele>805</ele>
        <time>2011-06-11T16:42:32</time>
      </trkpt>
      <trkpt lat="45.3359" lon="5.80668">
        <ele>805</ele>
        <time>2011-06-11T16:42:40</time>
      </trkpt>
      <trkpt lat="45.33589" lon="5.80668">
        <ele>805</ele>
        <time>2011-06-11T16:42:50</time>
      </trkpt>
      <trkpt lat="45.33598" lon="5.80675">
        <ele>805</ele>
        <time>2011-06-11T16:42:55</time>
      </trkpt>
      <trkpt lat="45.33603" lon="5.80684">
        <ele>805</ele>
        <time>2011-06-11T16:43:00</time>
      </trkpt>
      <trkpt lat="45.33603" lon="5.80697">
        <ele>805</ele>
        <time>2011-06-11T16:43:04</time>
      </trkpt>
      <trkpt lat="45.3361" lon="5.80698">
        <ele>805</ele>
        <time>2011-06-11T16:43:07</time>
      </trkpt>
      <trkpt lat="45.33623" lon="5.80703">
        <ele>805</ele>
        <time>2011-06-11T16:43:12</time>
      </trkpt>
      <trkpt lat="45.33622" lon="5.80706">
        <ele>805</ele>
        <time>2011-06-11T16:43:14</time>
      </trkpt>
      <trkpt lat="45.33609" lon="5.80709">
        <ele>816</ele>
        <time>2011-06-11T16:43:20</time>
      </trkpt>
      <trkpt lat="45.33598" lon="5.80714">
        <ele>816</ele>
        <time>2011-06-11T16:43:29</time>
      </trkpt>
      <trkpt lat="45.3359" lon="5.80718">
        <ele>816</ele>
        <time>2011-06-11T16:43:35</time>
      </trkpt>
      <trkpt lat="45.33577" lon="5.80722">
        <ele>816</ele>
        <time>2011-06-11T16:43:41</time>
      </trkpt>
      <trkpt lat="45.33569" lon="5.80731">
        <ele>816</ele>
        <time>2011-06-11T16:43:45</time>
      </trkpt>
      <trkpt lat="45.33555" lon="5.80737">
        <ele>816</ele>
        <time>2011-06-11T16:43:51</time>
      </trkpt>
      <trkpt lat="45.33545" lon="5.80741">
        <ele>816</ele>
        <time>2011-06-11T16:43:56</time>
      </trkpt>
      <trkpt lat="45.33537" lon="5.80744">
        <ele>817</ele>
        <time>2011-06-11T16:44:01</time>
      </trkpt>
      <trkpt lat="45.33527" lon="5.80746">
        <ele>817</ele>
        <time>2011-06-11T16:44:06</time>
      </trkpt>
      <trkpt lat="45.33525" lon="5.80747">
        <ele>817</ele>
        <time>2011-06-11T16:44:07</time>
      </trkpt>
      <trkpt lat="45.33525" lon="5.80747">
        <ele>817</ele>
        <time>2011-06-11T16:44:07</time>
      </trkpt>
      <trkpt lat="45.33517" lon="5.8075">
        <ele>817</ele>
        <time>2011-06-11T16:44:11</time>
      </trkpt>
      <trkpt lat="45.33513" lon="5.80752">
        <ele>817</ele>
        <time>2011-06-11T16:44:13</time>
      </trkpt>
      <trkpt lat="45.33501" lon="5.80756">
        <ele>817</ele>
        <time>2011-06-11T16:44:18</time>
      </trkpt>
      <trkpt lat="45.33491" lon="5.80757">
        <ele>817</ele>
        <time>2011-06-11T16:44:24</time>
      </trkpt>
      <trkpt lat="45.3348" lon="5.80758">
        <ele>817</ele>
        <time>2011-06-11T16:44:29</time>
      </trkpt>
      <trkpt lat="45.33475" lon="5.80758">
        <ele>817</ele>
        <time>2011-06-11T16:44:31</time>
      </trkpt>
      <trkpt lat="45.33458" lon="5.80751">
        <ele>823</ele>
        <time>2011-06-11T16:44:38</time>
      </trkpt>
      <trkpt lat="45.33448" lon="5.80748">
        <ele>823</ele>
        <time>2011-06-11T16:44:42</time>
      </trkpt>
      <trkpt lat="45.33441" lon="5.8074">
        <ele>823</ele>
        <time>2011-06-11T16:44:46</time>
      </trkpt>
      <trkpt lat="45.33428" lon="5.80733">
        <ele>823</ele>
        <time>2011-06-11T16:44:53</time>
      </trkpt>
      <trkpt lat="45.33421" lon="5.8073">
        <ele>823</ele>
        <time>2011-06-11T16:44:57</time>
      </trkpt>
      <trkpt lat="45.33409" lon="5.80728">
        <ele>823</ele>
        <time>2011-06-11T16:45:02</time>
      </trkpt>
      <trkpt lat="45.33397" lon="5.80722">
        <ele>823</ele>
        <time>2011-06-11T16:45:08</time>
      </trkpt>
      <trkpt lat="45.33395" lon="5.80721">
        <ele>823</ele>
        <time>2011-06-11T16:45:09</time>
      </trkpt>
      <trkpt lat="45.33384" lon="5.80717">
        <ele>823</ele>
        <time>2011-06-11T16:45:14</time>
      </trkpt>
      <trkpt lat="45.33374" lon="5.80714">
        <ele>819</ele>
        <time>2011-06-11T16:45:19</time>
      </trkpt>
      <trkpt lat="45.33365" lon="5.8071">
        <ele>819</ele>
        <time>2011-06-11T16:45:24</time>
      </trkpt>
      <trkpt lat="45.33364" lon="5.80709">
        <ele>819</ele>
        <time>2011-06-11T16:45:25</time>
      </trkpt>
      <trkpt lat="45.33358" lon="5.80714">
        <ele>819</ele>
        <time>2011-06-11T16:45:29</time>
      </trkpt>
      <trkpt lat="45.33353" lon="5.80723">
        <ele>819</ele>
        <time>2011-06-11T16:45:36</time>
      </trkpt>
      <trkpt lat="45.33343" lon="5.80738">
        <ele>819</ele>
        <time>2011-06-11T16:45:43</time>
      </trkpt>
      <trkpt lat="45.33336" lon="5.80746">
        <ele>819</ele>
        <time>2011-06-11T16:45:47</time>
      </trkpt>
      <trkpt lat="45.33328" lon="5.80755">
        <ele>819</ele>
        <time>2011-06-11T16:45:52</time>
      </trkpt>
      <trkpt lat="45.33318" lon="5.80765">
        <ele>819</ele>
        <time>2011-06-11T16:45:57</time>
      </trkpt>
      <trkpt lat="45.33305" lon="5.8078">
        <ele>819</ele>
        <time>2011-06-11T16:46:04</time>
      </trkpt>
      <trkpt lat="45.33297" lon="5.80794">
        <ele>841</ele>
        <time>2011-06-11T16:46:10</time>
      </trkpt>
      <trkpt lat="45.3329" lon="5.80802">
        <ele>839</ele>
        <time>2011-06-11T16:46:15</time>
      </trkpt>
      <trkpt lat="45.33277" lon="5.8081">
        <ele>839</ele>
        <time>2011-06-11T16:46:21</time>
      </trkpt>
      <trkpt lat="45.33277" lon="5.80807">
        <ele>839</ele>
        <time>2011-06-11T16:46:25</time>
      </trkpt>
      <trkpt lat="45.33279" lon="5.80807">
        <ele>839</ele>
        <time>2011-06-11T16:46:26</time>
      </trkpt>
      <trkpt lat="45.33273" lon="5.8081">
        <ele>839</ele>
        <time>2011-06-11T16:46:33</time>
      </trkpt>
      <trkpt lat="45.33276" lon="5.80812">
        <ele>839</ele>
        <time>2011-06-11T16:46:41</time>
      </trkpt>
      <trkpt lat="45.33272" lon="5.80813">
        <ele>839</ele>
        <time>2011-06-11T16:46:48</time>
      </trkpt>
      <trkpt lat="45.33269" lon="5.80814">
        <ele>839</ele>
        <time>2011-06-11T16:46:50</time>
      </trkpt>
      <trkpt lat="45.33271" lon="5.80809">
        <ele>839</ele>
        <time>2011-06-11T16:46:52</time>
      </trkpt>
      <trkpt lat="45.33275" lon="5.80807">
        <ele>839</ele>
        <time>2011-06-11T16:46:55</time>
      </trkpt>
      <trkpt lat="45.33276" lon="5.80809">
        <ele>839</ele>
        <time>2011-06-11T16:47:01</time>
      </trkpt>
      <trkpt lat="45.33274" lon="5.80812">
        <ele>839</ele>
        <time>2011-06-11T16:47:23</time>
      </trkpt>
      <trkpt lat="45.33273" lon="5.80815">
        <ele>839</ele>
        <time>2011-06-11T16:47:25</time>
      </trkpt>
      <trkpt lat="45.3327" lon="5.80819">
        <ele>839</ele>
        <time>2011-06-11T16:47:31</time>
      </trkpt>
      <trkpt lat="45.33273" lon="5.80822">
        <ele>839</ele>
        <time>2011-06-11T16:47:38</time>
      </trkpt>
      <trkpt lat="45.33276" lon="5.80825">
        <ele>839</ele>
        <time>2011-06-11T16:47:40</time>
      </trkpt>
      <trkpt lat="45.33282" lon="5.80831">
        <ele>839</ele>
        <time>2011-06-11T16:47:45</time>
      </trkpt>
      <trkpt lat="45.33285" lon="5.80836">
        <ele>839</ele>
        <time>2011-06-11T16:47:49</time>
      </trkpt>
      <trkpt lat="45.33293" lon="5.80843">
        <ele>841</ele>
        <time>2011-06-11T16:47:56</time>
      </trkpt>
      <trkpt lat="45.33299" lon="5.80846">
        <ele>841</ele>
        <time>2011-06-11T16:48:01</time>
      </trkpt>
      <trkpt lat="45.33307" lon="5.80846">
        <ele>841</ele>
        <time>2011-06-11T16:48:07</time>
      </trkpt>
      <trkpt lat="45.33315" lon="5.80847">
        <ele>841</ele>
        <time>2011-06-11T16:48:12</time>
      </trkpt>
      <trkpt lat="45.33324" lon="5.80846">
        <ele>841</ele>
        <time>2011-06-11T16:48:18</time>
      </trkpt>
      <trkpt lat="45.33331" lon="5.80845">
        <ele>841</ele>
        <time>2011-06-11T16:48:23</time>
      </trkpt>
      <trkpt lat="45.3334" lon="5.80846">
        <ele>841</ele>
        <time>2011-06-11T16:48:28</time>
      </trkpt>
      <trkpt lat="45.33346" lon="5.80847">
        <ele>841</ele>
        <time>2011-06-11T16:48:32</time>
      </trkpt>
      <trkpt lat="45.33356" lon="5.80849">
        <ele>841</ele>
        <time>2011-06-11T16:48:38</time>
      </trkpt>
      <trkpt lat="45.33363" lon="5.80853">
        <ele>841</ele>
        <time>2011-06-11T16:48:42</time>
      </trkpt>
      <trkpt lat="45.33369" lon="5.80858">
        <ele>841</ele>
        <time>2011-06-11T16:48:48</time>
      </trkpt>
      <trkpt lat="45.33372" lon="5.8086">
        <ele>841</ele>
        <time>2011-06-11T16:48:51</time>
      </trkpt>
      <trkpt lat="45.33378" lon="5.80861">
        <ele>845</ele>
        <time>2011-06-11T16:48:56</time>
      </trkpt>
      <trkpt lat="45.33386" lon="5.8087">
        <ele>845</ele>
        <time>2011-06-11T16:49:03</time>
      </trkpt>
      <trkpt lat="45.3339" lon="5.80875">
        <ele>845</ele>
        <time>2011-06-11T16:49:07</time>
      </trkpt>
      <trkpt lat="45.33401" lon="5.80884">
        <ele>865</ele>
        <time>2011-06-11T16:49:14</time>
      </trkpt>
      <trkpt lat="45.33406" lon="5.80886">
        <ele>865</ele>
        <time>2011-06-11T16:49:17</time>
      </trkpt>
      <trkpt lat="45.33416" lon="5.80887">
        <ele>865</ele>
        <time>2011-06-11T16:49:22</time>
      </trkpt>
      <trkpt lat="45.33426" lon="5.80892">
        <ele>865</ele>
        <time>2011-06-11T16:49:29</time>
      </trkpt>
      <trkpt lat="45.33434" lon="5.80895">
        <ele>865</ele>
        <time>2011-06-11T16:49:35</time>
      </trkpt>
      <trkpt lat="45.3344" lon="5.80898">
        <ele>865</ele>
        <time>2011-06-11T16:49:40</time>
      </trkpt>
      <trkpt lat="45.33444" lon="5.80899">
        <ele>865</ele>
        <time>2011-06-11T16:49:43</time>
      </trkpt>
      <trkpt lat="45.3345" lon="5.80908">
        <ele>865</ele>
        <time>2011-06-11T16:49:51</time>
      </trkpt>
      <trkpt lat="45.33452" lon="5.8091">
        <ele>865</ele>
        <time>2011-06-11T16:49:53</time>
      </trkpt>
      <trkpt lat="45.33457" lon="5.80915">
        <ele>865</ele>
        <time>2011-06-11T16:49:59</time>
      </trkpt>
      <trkpt lat="45.33461" lon="5.80918">
        <ele>853</ele>
        <time>2011-06-11T16:50:06</time>
      </trkpt>
      <trkpt lat="45.33462" lon="5.80926">
        <ele>853</ele>
        <time>2011-06-11T16:50:12</time>
      </trkpt>
      <trkpt lat="45.33463" lon="5.80936">
        <ele>853</ele>
        <time>2011-06-11T16:50:18</time>
      </trkpt>
      <trkpt lat="45.33468" lon="5.80941">
        <ele>853</ele>
        <time>2011-06-11T16:50:23</time>
      </trkpt>
      <trkpt lat="45.33472" lon="5.8095">
        <ele>853</ele>
        <time>2011-06-11T16:50:29</time>
      </trkpt>
      <trkpt lat="45.33473" lon="5.8095">
        <ele>853</ele>
        <time>2011-06-11T16:50:30</time>
      </trkpt>
      <trkpt lat="45.33478" lon="5.80954">
        <ele>853</ele>
        <time>2011-06-11T16:50:36</time>
      </trkpt>
      <trkpt lat="45.33484" lon="5.80963">
        <ele>873</ele>
        <time>2011-06-11T16:50:41</time>
      </trkpt>
      <trkpt lat="45.33485" lon="5.80965">
        <ele>873</ele>
        <time>2011-06-11T16:50:43</time>
      </trkpt>
      <trkpt lat="45.33489" lon="5.80977">
        <ele>873</ele>
        <time>2011-06-11T16:50:48</time>
      </trkpt>
      <trkpt lat="45.33491" lon="5.8099">
        <ele>873</ele>
        <time>2011-06-11T16:50:56</time>
      </trkpt>
      <trkpt lat="45.33493" lon="5.80991">
        <ele>873</ele>
        <time>2011-06-11T16:50:57</time>
      </trkpt>
      <trkpt lat="45.33494" lon="5.80998">
        <ele>873</ele>
        <time>2011-06-11T16:51:01</time>
      </trkpt>
      <trkpt lat="45.33496" lon="5.81009">
        <ele>873</ele>
        <time>2011-06-11T16:51:07</time>
      </trkpt>
      <trkpt lat="45.33497" lon="5.81015">
        <ele>873</ele>
        <time>2011-06-11T16:51:11</time>
      </trkpt>
      <trkpt lat="45.335" lon="5.81022">
        <ele>873</ele>
        <time>2011-06-11T16:51:19</time>
      </trkpt>
      <trkpt lat="45.33501" lon="5.81026">
        <ele>873</ele>
        <time>2011-06-11T16:51:25</time>
      </trkpt>
      <trkpt lat="45.33499" lon="5.81031">
        <ele>873</ele>
        <time>2011-06-11T16:51:30</time>
      </trkpt>
      <trkpt lat="45.33501" lon="5.81034">
        <ele>873</ele>
        <time>2011-06-11T16:51:35</time>
      </trkpt>
      <trkpt lat="45.33503" lon="5.81039">
        <ele>873</ele>
        <time>2011-06-11T16:51:39</time>
      </trkpt>
      <trkpt lat="45.33504" lon="5.81046">
        <ele>884</ele>
        <time>2011-06-11T16:51:45</time>
      </trkpt>
      <trkpt lat="45.33505" lon="5.8105">
        <ele>884</ele>
        <time>2011-06-11T16:51:49</time>
      </trkpt>
      <trkpt lat="45.33507" lon="5.81055">
        <ele>884</ele>
        <time>2011-06-11T16:51:53</time>
      </trkpt>
      <trkpt lat="45.33507" lon="5.81061">
        <ele>884</ele>
        <time>2011-06-11T16:51:57</time>
      </trkpt>
      <trkpt lat="45.33509" lon="5.81066">
        <ele>884</ele>
        <time>2011-06-11T16:52:02</time>
      </trkpt>
      <trkpt lat="45.33509" lon="5.81076">
        <ele>884</ele>
        <time>2011-06-11T16:52:08</time>
      </trkpt>
      <trkpt lat="45.33512" lon="5.81082">
        <ele>884</ele>
        <time>2011-06-11T16:52:14</time>
      </trkpt>
      <trkpt lat="45.33511" lon="5.81091">
        <ele>884</ele>
        <time>2011-06-11T16:52:20</time>
      </trkpt>
      <trkpt lat="45.33512" lon="5.81097">
        <ele>884</ele>
        <time>2011-06-11T16:52:25</time>
      </trkpt>
      <trkpt lat="45.33512" lon="5.811">
        <ele>884</ele>
        <time>2011-06-11T16:52:30</time>
      </trkpt>
      <trkpt lat="45.33511" lon="5.81107">
        <ele>884</ele>
        <time>2011-06-11T16:52:33</time>
      </trkpt>
      <trkpt lat="45.3351" lon="5.8112">
        <ele>884</ele>
        <time>2011-06-11T16:52:39</time>
      </trkpt>
      <trkpt lat="45.33511" lon="5.81133">
        <ele>895</ele>
        <time>2011-06-11T16:52:45</time>
      </trkpt>
      <trkpt lat="45.33514" lon="5.81148">
        <ele>895</ele>
        <time>2011-06-11T16:52:53</time>
      </trkpt>
      <trkpt lat="45.33515" lon="5.81153">
        <ele>895</ele>
        <time>2011-06-11T16:52:56</time>
      </trkpt>
      <trkpt lat="45.33515" lon="5.81154">
        <ele>895</ele>
        <time>2011-06-11T16:52:58</time>
      </trkpt>
      <trkpt lat="45.33512" lon="5.81159">
        <ele>895</ele>
        <time>2011-06-11T16:53:02</time>
      </trkpt>
      <trkpt lat="45.3351" lon="5.81164">
        <ele>895</ele>
        <time>2011-06-11T16:53:09</time>
      </trkpt>
      <trkpt lat="45.33507" lon="5.81174">
        <ele>895</ele>
        <time>2011-06-11T16:53:17</time>
      </trkpt>
      <trkpt lat="45.33506" lon="5.81179">
        <ele>895</ele>
        <time>2011-06-11T16:53:21</time>
      </trkpt>
      <trkpt lat="45.33503" lon="5.81184">
        <ele>895</ele>
        <time>2011-06-11T16:53:26</time>
      </trkpt>
      <trkpt lat="45.33501" lon="5.81186">
        <ele>895</ele>
        <time>2011-06-11T16:53:31</time>
      </trkpt>
      <trkpt lat="45.33498" lon="5.81189">
        <ele>895</ele>
        <time>2011-06-11T16:53:37</time>
      </trkpt>
      <trkpt lat="45.33496" lon="5.81195">
        <ele>895</ele>
        <time>2011-06-11T16:53:42</time>
      </trkpt>
      <trkpt lat="45.33496" lon="5.812">
        <ele>895</ele>
        <time>2011-06-11T16:53:48</time>
      </trkpt>
      <trkpt lat="45.33495" lon="5.81204">
        <ele>895</ele>
        <time>2011-06-11T16:53:54</time>
      </trkpt>
      <trkpt lat="45.33494" lon="5.8121">
        <ele>908</ele>
        <time>2011-06-11T16:53:59</time>
      </trkpt>
      <trkpt lat="45.33492" lon="5.81215">
        <ele>908</ele>
        <time>2011-06-11T16:54:03</time>
      </trkpt>
      <trkpt lat="45.3349" lon="5.81218">
        <ele>908</ele>
        <time>2011-06-11T16:54:05</time>
      </trkpt>
      <trkpt lat="45.3349" lon="5.81225">
        <ele>908</ele>
        <time>2011-06-11T16:54:12</time>
      </trkpt>
      <trkpt lat="45.33488" lon="5.81232">
        <ele>908</ele>
        <time>2011-06-11T16:54:18</time>
      </trkpt>
      <trkpt lat="45.33486" lon="5.81236">
        <ele>908</ele>
        <time>2011-06-11T16:54:23</time>
      </trkpt>
      <trkpt lat="45.33483" lon="5.8124">
        <ele>908</ele>
        <time>2011-06-11T16:54:28</time>
      </trkpt>
      <trkpt lat="45.33479" lon="5.81245">
        <ele>908</ele>
        <time>2011-06-11T16:54:34</time>
      </trkpt>
      <trkpt lat="45.33476" lon="5.81246">
        <ele>908</ele>
        <time>2011-06-11T16:54:36</time>
      </trkpt>
      <trkpt lat="45.33473" lon="5.81247">
        <ele>908</ele>
        <time>2011-06-11T16:54:40</time>
      </trkpt>
      <trkpt lat="45.33477" lon="5.81253">
        <ele>908</ele>
        <time>2011-06-11T16:54:46</time>
      </trkpt>
      <trkpt lat="45.3348" lon="5.81258">
        <ele>908</ele>
        <time>2011-06-11T16:54:50</time>
      </trkpt>
      <trkpt lat="45.33487" lon="5.81265">
        <ele>908</ele>
        <time>2011-06-11T16:54:55</time>
      </trkpt>
      <trkpt lat="45.33491" lon="5.81271">
        <ele>908</ele>
        <time>2011-06-11T16:54:58</time>
      </trkpt>
      <trkpt lat="45.335" lon="5.81282">
        <ele>908</ele>
        <time>2011-06-11T16:55:04</time>
      </trkpt>
      <trkpt lat="45.33509" lon="5.81291">
        <ele>908</ele>
        <time>2011-06-11T16:55:09</time>
      </trkpt>
      <trkpt lat="45.33517" lon="5.81299">
        <ele>919</ele>
        <time>2011-06-11T16:55:14</time>
      </trkpt>
      <trkpt lat="45.33524" lon="5.81305">
        <ele>919</ele>
        <time>2011-06-11T16:55:18</time>
      </trkpt>
      <trkpt lat="45.33531" lon="5.81315">
        <ele>919</ele>
        <time>2011-06-11T16:55:23</time>
      </trkpt>
      <trkpt lat="45.33539" lon="5.81325">
        <ele>919</ele>
        <time>2011-06-11T16:55:28</time>
      </trkpt>
      <trkpt lat="45.33547" lon="5.81337">
        <ele>913</ele>
        <time>2011-06-11T16:55:33</time>
      </trkpt>
      <trkpt lat="45.33559" lon="5.81349">
        <ele>913</ele>
        <time>2011-06-11T16:55:39</time>
      </trkpt>
      <trkpt lat="45.33567" lon="5.8136">
        <ele>913</ele>
        <time>2011-06-11T16:55:44</time>
      </trkpt>
      <trkpt lat="45.33576" lon="5.81368">
        <ele>913</ele>
        <time>2011-06-11T16:55:49</time>
      </trkpt>
      <trkpt lat="45.33578" lon="5.81369">
        <ele>913</ele>
        <time>2011-06-11T16:55:50</time>
      </trkpt>
      <trkpt lat="45.33578" lon="5.81369">
        <ele>913</ele>
        <time>2011-06-11T16:55:50</time>
      </trkpt>
      <trkpt lat="45.33584" lon="5.81373">
        <ele>913</ele>
        <time>2011-06-11T16:55:53</time>
      </trkpt>
      <trkpt lat="45.33594" lon="5.81374">
        <ele>913</ele>
        <time>2011-06-11T16:55:58</time>
      </trkpt>
      <trkpt lat="45.33598" lon="5.81373">
        <ele>913</ele>
        <time>2011-06-11T16:56:00</time>
      </trkpt>
      <trkpt lat="45.33607" lon="5.81362">
        <ele>913</ele>
        <time>2011-06-11T16:56:06</time>
      </trkpt>
      <trkpt lat="45.33612" lon="5.81345">
        <ele>913</ele>
        <time>2011-06-11T16:56:13</time>
      </trkpt>
      <trkpt lat="45.33616" lon="5.81329">
        <ele>913</ele>
        <time>2011-06-11T16:56:19</time>
      </trkpt>
      <trkpt lat="45.33619" lon="5.81313">
        <ele>913</ele>
        <time>2011-06-11T16:56:25</time>
      </trkpt>
      <trkpt lat="45.33623" lon="5.81301">
        <ele>913</ele>
        <time>2011-06-11T16:56:30</time>
      </trkpt>
      <trkpt lat="45.33631" lon="5.81289">
        <ele>914</ele>
        <time>2011-06-11T16:56:36</time>
      </trkpt>
      <trkpt lat="45.33633" lon="5.81288">
        <ele>914</ele>
        <time>2011-06-11T16:56:37</time>
      </trkpt>
      <trkpt lat="45.33639" lon="5.81286">
        <ele>914</ele>
        <time>2011-06-11T16:56:40</time>
      </trkpt>
      <trkpt lat="45.33652" lon="5.81289">
        <ele>914</ele>
        <time>2011-06-11T16:56:47</time>
      </trkpt>
      <trkpt lat="45.33662" lon="5.81297">
        <ele>921</ele>
        <time>2011-06-11T16:56:53</time>
      </trkpt>
      <trkpt lat="45.33671" lon="5.81303">
        <ele>921</ele>
        <time>2011-06-11T16:56:58</time>
      </trkpt>
      <trkpt lat="45.33679" lon="5.81309">
        <ele>921</ele>
        <time>2011-06-11T16:57:03</time>
      </trkpt>
      <trkpt lat="45.33685" lon="5.81315">
        <ele>921</ele>
        <time>2011-06-11T16:57:07</time>
      </trkpt>
      <trkpt lat="45.33694" lon="5.81325">
        <ele>921</ele>
        <time>2011-06-11T16:57:12</time>
      </trkpt>
      <trkpt lat="45.337" lon="5.81335">
        <ele>921</ele>
        <time>2011-06-11T16:57:17</time>
      </trkpt>
      <trkpt lat="45.33702" lon="5.81337">
        <ele>921</ele>
        <time>2011-06-11T16:57:18</time>
      </trkpt>
      <trkpt lat="45.33707" lon="5.81346">
        <ele>921</ele>
        <time>2011-06-11T16:57:22</time>
      </trkpt>
      <trkpt lat="45.33711" lon="5.81356">
        <ele>915</ele>
        <time>2011-06-11T16:57:26</time>
      </trkpt>
      <trkpt lat="45.33715" lon="5.81374">
        <ele>915</ele>
        <time>2011-06-11T16:57:33</time>
      </trkpt>
      <trkpt lat="45.33716" lon="5.81388">
        <ele>912</ele>
        <time>2011-06-11T16:57:38</time>
      </trkpt>
      <trkpt lat="45.33717" lon="5.814">
        <ele>912</ele>
        <time>2011-06-11T16:57:43</time>
      </trkpt>
      <trkpt lat="45.33719" lon="5.81413">
        <ele>912</ele>
        <time>2011-06-11T16:57:48</time>
      </trkpt>
      <trkpt lat="45.33719" lon="5.81423">
        <ele>912</ele>
        <time>2011-06-11T16:57:52</time>
      </trkpt>
      <trkpt lat="45.33719" lon="5.81429">
        <ele>912</ele>
        <time>2011-06-11T16:57:54</time>
      </trkpt>
      <trkpt lat="45.3372" lon="5.81445">
        <ele>912</ele>
        <time>2011-06-11T16:58:00</time>
      </trkpt>
      <trkpt lat="45.33722" lon="5.81463">
        <ele>921</ele>
        <time>2011-06-11T16:58:06</time>
      </trkpt>
      <trkpt lat="45.33723" lon="5.81478">
        <ele>921</ele>
        <time>2011-06-11T16:58:12</time>
      </trkpt>
      <trkpt lat="45.33723" lon="5.81492">
        <ele>921</ele>
        <time>2011-06-11T16:58:17</time>
      </trkpt>
      <trkpt lat="45.33721" lon="5.81509">
        <ele>921</ele>
        <time>2011-06-11T16:58:23</time>
      </trkpt>
      <trkpt lat="45.33722" lon="5.81521">
        <ele>921</ele>
        <time>2011-06-11T16:58:27</time>
      </trkpt>
      <trkpt lat="45.3372" lon="5.81534">
        <ele>921</ele>
        <time>2011-06-11T16:58:32</time>
      </trkpt>
      <trkpt lat="45.3372" lon="5.81548">
        <ele>923</ele>
        <time>2011-06-11T16:58:38</time>
      </trkpt>
      <trkpt lat="45.33718" lon="5.81565">
        <ele>923</ele>
        <time>2011-06-11T16:58:44</time>
      </trkpt>
      <trkpt lat="45.33716" lon="5.81579">
        <ele>923</ele>
        <time>2011-06-11T16:58:49</time>
      </trkpt>
      <trkpt lat="45.33716" lon="5.81594">
        <ele>923</ele>
        <time>2011-06-11T16:58:54</time>
      </trkpt>
      <trkpt lat="45.33714" lon="5.8161">
        <ele>923</ele>
        <time>2011-06-11T16:58:59</time>
      </trkpt>
      <trkpt lat="45.33713" lon="5.81624">
        <ele>923</ele>
        <time>2011-06-11T16:59:04</time>
      </trkpt>
      <trkpt lat="45.33712" lon="5.81638">
        <ele>925</ele>
        <time>2011-06-11T16:59:09</time>
      </trkpt>
      <trkpt lat="45.33711" lon="5.81653">
        <ele>925</ele>
        <time>2011-06-11T16:59:15</time>
      </trkpt>
      <trkpt lat="45.3371" lon="5.81669">
        <ele>925</ele>
        <time>2011-06-11T16:59:20</time>
      </trkpt>
      <trkpt lat="45.33709" lon="5.81683">
        <ele>925</ele>
        <time>2011-06-11T16:59:25</time>
      </trkpt>
      <trkpt lat="45.33709" lon="5.81696">
        <ele>925</ele>
        <time>2011-06-11T16:59:30</time>
      </trkpt>
      <trkpt lat="45.3371" lon="5.81715">
        <ele>927</ele>
        <time>2011-06-11T16:59:36</time>
      </trkpt>
      <trkpt lat="45.3371" lon="5.81729">
        <ele>927</ele>
        <time>2011-06-11T16:59:41</time>
      </trkpt>
      <trkpt lat="45.3371" lon="5.81744">
        <ele>927</ele>
        <time>2011-06-11T16:59:46</time>
      </trkpt>
      <trkpt lat="45.3371" lon="5.81755">
        <ele>927</ele>
        <time>2011-06-11T16:59:50</time>
      </trkpt>
      <trkpt lat="45.33709" lon="5.8177">
        <ele>927</ele>
        <time>2011-06-11T16:59:56</time>
      </trkpt>
      <trkpt lat="45.33709" lon="5.81796">
        <ele>926</ele>
        <time>2011-06-11T17:00:04</time>
      </trkpt>
      <trkpt lat="45.33708" lon="5.81811">
        <ele>965</ele>
        <time>2011-06-11T17:00:09</time>
      </trkpt>
      <trkpt lat="45.33705" lon="5.81825">
        <ele>965</ele>
        <time>2011-06-11T17:00:15</time>
      </trkpt>
      <trkpt lat="45.33704" lon="5.81834">
        <ele>965</ele>
        <time>2011-06-11T17:00:19</time>
      </trkpt>
      <trkpt lat="45.33701" lon="5.81849">
        <ele>965</ele>
        <time>2011-06-11T17:00:24</time>
      </trkpt>
      <trkpt lat="45.33701" lon="5.81855">
        <ele>965</ele>
        <time>2011-06-11T17:00:26</time>
      </trkpt>
      <trkpt lat="45.33698" lon="5.81869">
        <ele>965</ele>
        <time>2011-06-11T17:00:31</time>
      </trkpt>
      <trkpt lat="45.33697" lon="5.81871">
        <ele>965</ele>
        <time>2011-06-11T17:00:32</time>
      </trkpt>
      <trkpt lat="45.33695" lon="5.81887">
        <ele>967</ele>
        <time>2011-06-11T17:00:40</time>
      </trkpt>
      <trkpt lat="45.33696" lon="5.8188">
        <ele>967</ele>
        <time>2011-06-11T17:00:45</time>
      </trkpt>
      <trkpt lat="45.33697" lon="5.81881">
        <ele>967</ele>
        <time>2011-06-11T17:00:46</time>
      </trkpt>
      <trkpt lat="45.33696" lon="5.81888">
        <ele>967</ele>
        <time>2011-06-11T17:00:50</time>
      </trkpt>
      <trkpt lat="45.33695" lon="5.81899">
        <ele>967</ele>
        <time>2011-06-11T17:00:56</time>
      </trkpt>
      <trkpt lat="45.33697" lon="5.81912">
        <ele>967</ele>
        <time>2011-06-11T17:01:02</time>
      </trkpt>
      <trkpt lat="45.33702" lon="5.81928">
        <ele>967</ele>
        <time>2011-06-11T17:01:09</time>
      </trkpt>
      <trkpt lat="45.33705" lon="5.81935">
        <ele>967</ele>
        <time>2011-06-11T17:01:12</time>
      </trkpt>
      <trkpt lat="45.33706" lon="5.8194">
        <ele>967</ele>
        <time>2011-06-11T17:01:15</time>
      </trkpt>
      <trkpt lat="45.33708" lon="5.81943">
        <ele>967</ele>
        <time>2011-06-11T17:01:21</time>
      </trkpt>
      <trkpt lat="45.33713" lon="5.81944">
        <ele>935</ele>
        <time>2011-06-11T17:01:27</time>
      </trkpt>
      <trkpt lat="45.33719" lon="5.81942">
        <ele>935</ele>
        <time>2011-06-11T17:01:32</time>
      </trkpt>
      <trkpt lat="45.33723" lon="5.81937">
        <ele>935</ele>
        <time>2011-06-11T17:01:40</time>
      </trkpt>
      <trkpt lat="45.33728" lon="5.81934">
        <ele>935</ele>
        <time>2011-06-11T17:01:49</time>
      </trkpt>
      <trkpt lat="45.3373" lon="5.81932">
        <ele>935</ele>
        <time>2011-06-11T17:01:53</time>
      </trkpt>
      <trkpt lat="45.33735" lon="5.81926">
        <ele>935</ele>
        <time>2011-06-11T17:02:01</time>
      </trkpt>
      <trkpt lat="45.33739" lon="5.81918">
        <ele>935</ele>
        <time>2011-06-11T17:02:07</time>
      </trkpt>
      <trkpt lat="45.33746" lon="5.81912">
        <ele>935</ele>
        <time>2011-06-11T17:02:12</time>
      </trkpt>
      <trkpt lat="45.33749" lon="5.81908">
        <ele>935</ele>
        <time>2011-06-11T17:02:16</time>
      </trkpt>
      <trkpt lat="45.33756" lon="5.81898">
        <ele>935</ele>
        <time>2011-06-11T17:02:22</time>
      </trkpt>
      <trkpt lat="45.33762" lon="5.81889">
        <ele>935</ele>
        <time>2011-06-11T17:02:28</time>
      </trkpt>
      <trkpt lat="45.33763" lon="5.81887">
        <ele>935</ele>
        <time>2011-06-11T17:02:30</time>
      </trkpt>
      <trkpt lat="45.33774" lon="5.81879">
        <ele>935</ele>
        <time>2011-06-11T17:02:37</time>
      </trkpt>
      <trkpt lat="45.33782" lon="5.81875">
        <ele>935</ele>
        <time>2011-06-11T17:02:42</time>
      </trkpt>
      <trkpt lat="45.33785" lon="5.81871">
        <ele>926</ele>
        <time>2011-06-11T17:02:45</time>
      </trkpt>
      <trkpt lat="45.3379" lon="5.81868">
        <ele>926</ele>
        <time>2011-06-11T17:02:48</time>
      </trkpt>
      <trkpt lat="45.33795" lon="5.81868">
        <ele>918</ele>
        <time>2011-06-11T17:02:53</time>
      </trkpt>
      <trkpt lat="45.33794" lon="5.81869">
        <ele>918</ele>
        <time>2011-06-11T17:02:56</time>
      </trkpt>
      <trkpt lat="45.33803" lon="5.81873">
        <ele>918</ele>
        <time>2011-06-11T17:03:01</time>
      </trkpt>
      <trkpt lat="45.33815" lon="5.81862">
        <ele>918</ele>
        <time>2011-06-11T17:03:07</time>
      </trkpt>
      <trkpt lat="45.3382" lon="5.81858">
        <ele>918</ele>
        <time>2011-06-11T17:03:11</time>
      </trkpt>
      <trkpt lat="45.33825" lon="5.81864">
        <ele>918</ele>
        <time>2011-06-11T17:03:16</time>
      </trkpt>
      <trkpt lat="45.33826" lon="5.81864">
        <ele>918</ele>
        <time>2011-06-11T17:03:21</time>
      </trkpt>
      <trkpt lat="45.33824" lon="5.81862">
        <ele>918</ele>
        <time>2011-06-11T17:03:23</time>
      </trkpt>
      <trkpt lat="45.33832" lon="5.81844">
        <ele>918</ele>
        <time>2011-06-11T17:03:29</time>
      </trkpt>
      <trkpt lat="45.33848" lon="5.81846">
        <ele>918</ele>
        <time>2011-06-11T17:03:37</time>
      </trkpt>
      <trkpt lat="45.33851" lon="5.8185">
        <ele>918</ele>
        <time>2011-06-11T17:03:41</time>
      </trkpt>
      <trkpt lat="45.33854" lon="5.81854">
        <ele>918</ele>
        <time>2011-06-11T17:03:47</time>
      </trkpt>
      <trkpt lat="45.33847" lon="5.81852">
        <ele>918</ele>
        <time>2011-06-11T17:03:52</time>
      </trkpt>
      <trkpt lat="45.33846" lon="5.81851">
        <ele>918</ele>
        <time>2011-06-11T17:03:54</time>
      </trkpt>
      <trkpt lat="45.33848" lon="5.8185">
        <ele>918</ele>
        <time>2011-06-11T17:03:56</time>
      </trkpt>
      <trkpt lat="45.33854" lon="5.8185">
        <ele>918</ele>
        <time>2011-06-11T17:03:59</time>
      </trkpt>
      <trkpt lat="45.33863" lon="5.81849">
        <ele>918</ele>
        <time>2011-06-11T17:04:04</time>
      </trkpt>
      <trkpt lat="45.33871" lon="5.81847">
        <ele>918</ele>
        <time>2011-06-11T17:04:09</time>
      </trkpt>
      <trkpt lat="45.33876" lon="5.81842">
        <ele>892</ele>
        <time>2011-06-11T17:04:12</time>
      </trkpt>
      <trkpt lat="45.33882" lon="5.81844">
        <ele>892</ele>
        <time>2011-06-11T17:04:18</time>
      </trkpt>
      <trkpt lat="45.33884" lon="5.81841">
        <ele>892</ele>
        <time>2011-06-11T17:04:20</time>
      </trkpt>
      <trkpt lat="45.33887" lon="5.8184">
        <ele>892</ele>
        <time>2011-06-11T17:04:23</time>
      </trkpt>
      <trkpt lat="45.33888" lon="5.8184">
        <ele>892</ele>
        <time>2011-06-11T17:04:25</time>
      </trkpt>
      <trkpt lat="45.33893" lon="5.81842">
        <ele>892</ele>
        <time>2011-06-11T17:04:29</time>
      </trkpt>
      <trkpt lat="45.33902" lon="5.81836">
        <ele>892</ele>
        <time>2011-06-11T17:04:35</time>
      </trkpt>
      <trkpt lat="45.33907" lon="5.81838">
        <ele>892</ele>
        <time>2011-06-11T17:04:38</time>
      </trkpt>
      <trkpt lat="45.33909" lon="5.81845">
        <ele>892</ele>
        <time>2011-06-11T17:04:42</time>
      </trkpt>
      <trkpt lat="45.33904" lon="5.81854">
        <ele>892</ele>
        <time>2011-06-11T17:04:45</time>
      </trkpt>
      <trkpt lat="45.33906" lon="5.81868">
        <ele>892</ele>
        <time>2011-06-11T17:04:51</time>
      </trkpt>
      <trkpt lat="45.33912" lon="5.81878">
        <ele>890</ele>
        <time>2011-06-11T17:04:55</time>
      </trkpt>
      <trkpt lat="45.33918" lon="5.81892">
        <ele>890</ele>
        <time>2011-06-11T17:04:59</time>
      </trkpt>
      <trkpt lat="45.33912" lon="5.819">
        <ele>890</ele>
        <time>2011-06-11T17:05:03</time>
      </trkpt>
      <trkpt lat="45.33912" lon="5.81904">
        <ele>890</ele>
        <time>2011-06-11T17:05:05</time>
      </trkpt>
      <trkpt lat="45.33912" lon="5.81904">
        <ele>890</ele>
        <time>2011-06-11T17:05:05</time>
      </trkpt>
      <trkpt lat="45.33909" lon="5.81915">
        <ele>890</ele>
        <time>2011-06-11T17:05:09</time>
      </trkpt>
      <trkpt lat="45.33911" lon="5.81924">
        <ele>890</ele>
        <time>2011-06-11T17:05:12</time>
      </trkpt>
      <trkpt lat="45.33904" lon="5.81928">
        <ele>890</ele>
        <time>2011-06-11T17:05:16</time>
      </trkpt>
      <trkpt lat="45.33892" lon="5.81934">
        <ele>890</ele>
        <time>2011-06-11T17:05:21</time>
      </trkpt>
      <trkpt lat="45.33895" lon="5.81942">
        <ele>890</ele>
        <time>2011-06-11T17:05:25</time>
      </trkpt>
      <trkpt lat="45.33898" lon="5.81956">
        <ele>890</ele>
        <time>2011-06-11T17:05:30</time>
      </trkpt>
      <trkpt lat="45.33905" lon="5.8197">
        <ele>881</ele>
        <time>2011-06-11T17:05:36</time>
      </trkpt>
      <trkpt lat="45.33908" lon="5.81975">
        <ele>881</ele>
        <time>2011-06-11T17:05:38</time>
      </trkpt>
      <trkpt lat="45.33906" lon="5.81985">
        <ele>881</ele>
        <time>2011-06-11T17:05:43</time>
      </trkpt>
      <trkpt lat="45.33896" lon="5.81993">
        <ele>881</ele>
        <time>2011-06-11T17:05:48</time>
      </trkpt>
      <trkpt lat="45.33894" lon="5.82005">
        <ele>881</ele>
        <time>2011-06-11T17:05:54</time>
      </trkpt>
      <trkpt lat="45.33897" lon="5.82016">
        <ele>881</ele>
        <time>2011-06-11T17:05:58</time>
      </trkpt>
      <trkpt lat="45.33896" lon="5.8202">
        <ele>881</ele>
        <time>2011-06-11T17:06:00</time>
      </trkpt>
      <trkpt lat="45.33897" lon="5.82032">
        <ele>881</ele>
        <time>2011-06-11T17:06:06</time>
      </trkpt>
      <trkpt lat="45.33898" lon="5.82039">
        <ele>881</ele>
        <time>2011-06-11T17:06:10</time>
      </trkpt>
      <trkpt lat="45.33901" lon="5.82046">
        <ele>878</ele>
        <time>2011-06-11T17:06:14</time>
      </trkpt>
      <trkpt lat="45.33909" lon="5.82055">
        <ele>878</ele>
        <time>2011-06-11T17:06:21</time>
      </trkpt>
      <trkpt lat="45.33915" lon="5.82065">
        <ele>878</ele>
        <time>2011-06-11T17:06:26</time>
      </trkpt>
      <trkpt lat="45.33917" lon="5.8207">
        <ele>878</ele>
        <time>2011-06-11T17:06:29</time>
      </trkpt>
      <trkpt lat="45.33919" lon="5.82081">
        <ele>878</ele>
        <time>2011-06-11T17:06:34</time>
      </trkpt>
      <trkpt lat="45.33919" lon="5.8209">
        <ele>878</ele>
        <time>2011-06-11T17:06:40</time>
      </trkpt>
      <trkpt lat="45.3392" lon="5.82091">
        <ele>878</ele>
        <time>2011-06-11T17:06:43</time>
      </trkpt>
      <trkpt lat="45.3392" lon="5.82088">
        <ele>878</ele>
        <time>2011-06-11T17:06:47</time>
      </trkpt>
      <trkpt lat="45.3392" lon="5.82081">
        <ele>878</ele>
        <time>2011-06-11T17:06:50</time>
      </trkpt>
      <trkpt lat="45.33919" lon="5.82066">
        <ele>878</ele>
        <time>2011-06-11T17:06:56</time>
      </trkpt>
      <trkpt lat="45.33915" lon="5.82054">
        <ele>878</ele>
        <time>2011-06-11T17:07:00</time>
      </trkpt>
      <trkpt lat="45.33916" lon="5.82048">
        <ele>878</ele>
        <time>2011-06-11T17:07:03</time>
      </trkpt>
      <trkpt lat="45.3391" lon="5.82033">
        <ele>881</ele>
        <time>2011-06-11T17:07:09</time>
      </trkpt>
      <trkpt lat="45.3391" lon="5.82026">
        <ele>881</ele>
        <time>2011-06-11T17:07:11</time>
      </trkpt>
      <trkpt lat="45.33913" lon="5.82012">
        <ele>881</ele>
        <time>2011-06-11T17:07:15</time>
      </trkpt>
      <trkpt lat="45.33915" lon="5.82003">
        <ele>881</ele>
        <time>2011-06-11T17:07:21</time>
      </trkpt>
      <trkpt lat="45.33917" lon="5.81994">
        <ele>881</ele>
        <time>2011-06-11T17:07:26</time>
      </trkpt>
      <trkpt lat="45.33913" lon="5.81984">
        <ele>881</ele>
        <time>2011-06-11T17:07:29</time>
      </trkpt>
      <trkpt lat="45.33923" lon="5.81979">
        <ele>881</ele>
        <time>2011-06-11T17:07:34</time>
      </trkpt>
      <trkpt lat="45.33925" lon="5.81979">
        <ele>881</ele>
        <time>2011-06-11T17:07:36</time>
      </trkpt>
      <trkpt lat="45.33937" lon="5.81975">
        <ele>881</ele>
        <time>2011-06-11T17:07:42</time>
      </trkpt>
      <trkpt lat="45.33946" lon="5.81962">
        <ele>881</ele>
        <time>2011-06-11T17:07:49</time>
      </trkpt>
      <trkpt lat="45.33961" lon="5.81953">
        <ele>862</ele>
        <time>2011-06-11T17:07:55</time>
      </trkpt>
      <trkpt lat="45.33962" lon="5.81944">
        <ele>862</ele>
        <time>2011-06-11T17:07:59</time>
      </trkpt>
      <trkpt lat="45.33961" lon="5.8194">
        <ele>862</ele>
        <time>2011-06-11T17:08:00</time>
      </trkpt>
      <trkpt lat="45.3396" lon="5.81923">
        <ele>862</ele>
        <time>2011-06-11T17:08:07</time>
      </trkpt>
      <trkpt lat="45.33956" lon="5.81913">
        <ele>890</ele>
        <time>2011-06-11T17:08:11</time>
      </trkpt>
      <trkpt lat="45.3396" lon="5.81911">
        <ele>862</ele>
        <time>2011-06-11T17:08:13</time>
      </trkpt>
      <trkpt lat="45.33964" lon="5.81909">
        <ele>862</ele>
        <time>2011-06-11T17:08:15</time>
      </trkpt>
      <trkpt lat="45.33972" lon="5.81899">
        <ele>862</ele>
        <time>2011-06-11T17:08:21</time>
      </trkpt>
      <trkpt lat="45.33973" lon="5.81896">
        <ele>862</ele>
        <time>2011-06-11T17:08:22</time>
      </trkpt>
      <trkpt lat="45.33977" lon="5.81887">
        <ele>862</ele>
        <time>2011-06-11T17:08:28</time>
      </trkpt>
      <trkpt lat="45.33983" lon="5.8188">
        <ele>862</ele>
        <time>2011-06-11T17:08:33</time>
      </trkpt>
      <trkpt lat="45.33991" lon="5.81876">
        <ele>862</ele>
        <time>2011-06-11T17:08:40</time>
      </trkpt>
      <trkpt lat="45.33992" lon="5.81874">
        <ele>860</ele>
        <time>2011-06-11T17:08:45</time>
      </trkpt>
      <trkpt lat="45.33994" lon="5.8187">
        <ele>860</ele>
        <time>2011-06-11T17:08:48</time>
      </trkpt>
      <trkpt lat="45.33995" lon="5.81863">
        <ele>860</ele>
        <time>2011-06-11T17:08:51</time>
      </trkpt>
      <trkpt lat="45.3399" lon="5.81852">
        <ele>860</ele>
        <time>2011-06-11T17:08:56</time>
      </trkpt>
      <trkpt lat="45.33986" lon="5.81847">
        <ele>860</ele>
        <time>2011-06-11T17:09:00</time>
      </trkpt>
      <trkpt lat="45.33984" lon="5.81838">
        <ele>860</ele>
        <time>2011-06-11T17:09:04</time>
      </trkpt>
      <trkpt lat="45.33982" lon="5.81828">
        <ele>860</ele>
        <time>2011-06-11T17:09:10</time>
      </trkpt>
      <trkpt lat="45.33982" lon="5.81822">
        <ele>860</ele>
        <time>2011-06-11T17:09:15</time>
      </trkpt>
      <trkpt lat="45.33983" lon="5.81818">
        <ele>860</ele>
        <time>2011-06-11T17:09:19</time>
      </trkpt>
      <trkpt lat="45.33974" lon="5.8181">
        <ele>860</ele>
        <time>2011-06-11T17:09:23</time>
      </trkpt>
      <trkpt lat="45.33972" lon="5.81807">
        <ele>860</ele>
        <time>2011-06-11T17:09:24</time>
      </trkpt>
      <trkpt lat="45.3398" lon="5.81795">
        <ele>860</ele>
        <time>2011-06-11T17:09:28</time>
      </trkpt>
      <trkpt lat="45.33976" lon="5.8178">
        <ele>851</ele>
        <time>2011-06-11T17:09:34</time>
      </trkpt>
      <trkpt lat="45.33975" lon="5.81768">
        <ele>851</ele>
        <time>2011-06-11T17:09:38</time>
      </trkpt>
      <trkpt lat="45.3397" lon="5.81759">
        <ele>851</ele>
        <time>2011-06-11T17:09:42</time>
      </trkpt>
      <trkpt lat="45.33968" lon="5.81756">
        <ele>851</ele>
        <time>2011-06-11T17:09:44</time>
      </trkpt>
      <trkpt lat="45.33961" lon="5.81744">
        <ele>851</ele>
        <time>2011-06-11T17:09:49</time>
      </trkpt>
      <trkpt lat="45.3396" lon="5.81736">
        <ele>851</ele>
        <time>2011-06-11T17:09:52</time>
      </trkpt>
      <trkpt lat="45.33957" lon="5.81722">
        <ele>877</ele>
        <time>2011-06-11T17:09:57</time>
      </trkpt>
      <trkpt lat="45.33956" lon="5.81718">
        <ele>877</ele>
        <time>2011-06-11T17:10:00</time>
      </trkpt>
      <trkpt lat="45.33955" lon="5.81713">
        <ele>877</ele>
        <time>2011-06-11T17:10:05</time>
      </trkpt>
      <trkpt lat="45.33959" lon="5.81697">
        <ele>842</ele>
        <time>2011-06-11T17:10:17</time>
      </trkpt>
      <trkpt lat="45.33959" lon="5.81691">
        <ele>842</ele>
        <time>2011-06-11T17:10:21</time>
      </trkpt>
      <trkpt lat="45.33962" lon="5.81684">
        <ele>842</ele>
        <time>2011-06-11T17:10:25</time>
      </trkpt>
      <trkpt lat="45.33959" lon="5.81673">
        <ele>842</ele>
        <time>2011-06-11T17:10:31</time>
      </trkpt>
      <trkpt lat="45.33961" lon="5.81667">
        <ele>842</ele>
        <time>2011-06-11T17:10:34</time>
      </trkpt>
      <trkpt lat="45.33965" lon="5.81656">
        <ele>842</ele>
        <time>2011-06-11T17:10:39</time>
      </trkpt>
      <trkpt lat="45.33978" lon="5.8165">
        <ele>842</ele>
        <time>2011-06-11T17:10:45</time>
      </trkpt>
      <trkpt lat="45.33983" lon="5.8165">
        <ele>842</ele>
        <time>2011-06-11T17:10:47</time>
      </trkpt>
      <trkpt lat="45.33992" lon="5.81654">
        <ele>842</ele>
        <time>2011-06-11T17:10:51</time>
      </trkpt>
      <trkpt lat="45.34" lon="5.81648">
        <ele>842</ele>
        <time>2011-06-11T17:10:57</time>
      </trkpt>
      <trkpt lat="45.34004" lon="5.81645">
        <ele>842</ele>
        <time>2011-06-11T17:10:59</time>
      </trkpt>
      <trkpt lat="45.34008" lon="5.81638">
        <ele>842</ele>
        <time>2011-06-11T17:11:02</time>
      </trkpt>
      <trkpt lat="45.34012" lon="5.81636">
        <ele>842</ele>
        <time>2011-06-11T17:11:08</time>
      </trkpt>
      <trkpt lat="45.34015" lon="5.81636">
        <ele>842</ele>
        <time>2011-06-11T17:11:11</time>
      </trkpt>
      <trkpt lat="45.34023" lon="5.81634">
        <ele>842</ele>
        <time>2011-06-11T17:11:19</time>
      </trkpt>
      <trkpt lat="45.34028" lon="5.81635">
        <ele>842</ele>
        <time>2011-06-11T17:11:24</time>
      </trkpt>
      <trkpt lat="45.34034" lon="5.81636">
        <ele>842</ele>
        <time>2011-06-11T17:11:30</time>
      </trkpt>
      <trkpt lat="45.34043" lon="5.81635">
        <ele>866</ele>
        <time>2011-06-11T17:11:45</time>
      </trkpt>
      <trkpt lat="45.34046" lon="5.8164">
        <ele>866</ele>
        <time>2011-06-11T17:11:50</time>
      </trkpt>
      <trkpt lat="45.34045" lon="5.81642">
        <ele>866</ele>
        <time>2011-06-11T17:11:53</time>
      </trkpt>
      <trkpt lat="45.34045" lon="5.8165">
        <ele>866</ele>
        <time>2011-06-11T17:11:57</time>
      </trkpt>
      <trkpt lat="45.34048" lon="5.81657">
        <ele>866</ele>
        <time>2011-06-11T17:12:01</time>
      </trkpt>
      <trkpt lat="45.34049" lon="5.8166">
        <ele>866</ele>
        <time>2011-06-11T17:12:02</time>
      </trkpt>
      <trkpt lat="45.34049" lon="5.81668">
        <ele>866</ele>
        <time>2011-06-11T17:12:08</time>
      </trkpt>
      <trkpt lat="45.34052" lon="5.81675">
        <ele>866</ele>
        <time>2011-06-11T17:12:12</time>
      </trkpt>
      <trkpt lat="45.3405" lon="5.81687">
        <ele>866</ele>
        <time>2011-06-11T17:12:23</time>
      </trkpt>
      <trkpt lat="45.3405" lon="5.81693">
        <ele>866</ele>
        <time>2011-06-11T17:12:27</time>
      </trkpt>
      <trkpt lat="45.34058" lon="5.81683">
        <ele>866</ele>
        <time>2011-06-11T17:12:45</time>
      </trkpt>
      <trkpt lat="45.34059" lon="5.81681">
        <ele>866</ele>
        <time>2011-06-11T17:12:53</time>
      </trkpt>
      <trkpt lat="45.34065" lon="5.81681">
        <ele>866</ele>
        <time>2011-06-11T17:13:02</time>
      </trkpt>
      <trkpt lat="45.34069" lon="5.81679">
        <ele>866</ele>
        <time>2011-06-11T17:13:08</time>
      </trkpt>
      <trkpt lat="45.34075" lon="5.81677">
        <ele>866</ele>
        <time>2011-06-11T17:13:13</time>
      </trkpt>
      <trkpt lat="45.34082" lon="5.81672">
        <ele>866</ele>
        <time>2011-06-11T17:13:19</time>
      </trkpt>
      <trkpt lat="45.34087" lon="5.81664">
        <ele>866</ele>
        <time>2011-06-11T17:13:25</time>
      </trkpt>
      <trkpt lat="45.34091" lon="5.81655">
        <ele>866</ele>
        <time>2011-06-11T17:13:31</time>
      </trkpt>
      <trkpt lat="45.34093" lon="5.81651">
        <ele>866</ele>
        <time>2011-06-11T17:13:35</time>
      </trkpt>
      <trkpt lat="45.34098" lon="5.81647">
        <ele>866</ele>
        <time>2011-06-11T17:13:41</time>
      </trkpt>
      <trkpt lat="45.34101" lon="5.81642">
        <ele>866</ele>
        <time>2011-06-11T17:13:46</time>
      </trkpt>
      <trkpt lat="45.34105" lon="5.81641">
        <ele>866</ele>
        <time>2011-06-11T17:13:52</time>
      </trkpt>
      <trkpt lat="45.34109" lon="5.81638">
        <ele>866</ele>
        <time>2011-06-11T17:13:57</time>
      </trkpt>
      <trkpt lat="45.34116" lon="5.81634">
        <ele>866</ele>
        <time>2011-06-11T17:14:04</time>
      </trkpt>
      <trkpt lat="45.3412" lon="5.81632">
        <ele>866</ele>
        <time>2011-06-11T17:14:08</time>
      </trkpt>
      <trkpt lat="45.34125" lon="5.81628">
        <ele>866</ele>
        <time>2011-06-11T17:14:14</time>
      </trkpt>
      <trkpt lat="45.34127" lon="5.81624">
        <ele>890</ele>
        <time>2011-06-11T17:14:21</time>
      </trkpt>
      <trkpt lat="45.34127" lon="5.8162">
        <ele>890</ele>
        <time>2011-06-11T17:14:26</time>
      </trkpt>
      <trkpt lat="45.34129" lon="5.81614">
        <ele>890</ele>
        <time>2011-06-11T17:14:31</time>
      </trkpt>
      <trkpt lat="45.34131" lon="5.81609">
        <ele>890</ele>
        <time>2011-06-11T17:14:36</time>
      </trkpt>
      <trkpt lat="45.34129" lon="5.81602">
        <ele>890</ele>
        <time>2011-06-11T17:14:42</time>
      </trkpt>
      <trkpt lat="45.34129" lon="5.81598">
        <ele>890</ele>
        <time>2011-06-11T17:14:47</time>
      </trkpt>
      <trkpt lat="45.34134" lon="5.81606">
        <ele>890</ele>
        <time>2011-06-11T17:14:53</time>
      </trkpt>
      <trkpt lat="45.34134" lon="5.8161">
        <ele>890</ele>
        <time>2011-06-11T17:14:58</time>
      </trkpt>
      <trkpt lat="45.34136" lon="5.81612">
        <ele>890</ele>
        <time>2011-06-11T17:15:03</time>
      </trkpt>
      <trkpt lat="45.34141" lon="5.81614">
        <ele>890</ele>
        <time>2011-06-11T17:15:09</time>
      </trkpt>
      <trkpt lat="45.34145" lon="5.81614">
        <ele>890</ele>
        <time>2011-06-11T17:15:13</time>
      </trkpt>
      <trkpt lat="45.34148" lon="5.81615">
        <ele>890</ele>
        <time>2011-06-11T17:15:17</time>
      </trkpt>
      <trkpt lat="45.34156" lon="5.81621">
        <ele>890</ele>
        <time>2011-06-11T17:15:23</time>
      </trkpt>
      <trkpt lat="45.34159" lon="5.81632">
        <ele>890</ele>
        <time>2011-06-11T17:15:27</time>
      </trkpt>
      <trkpt lat="45.34153" lon="5.81651">
        <ele>890</ele>
        <time>2011-06-11T17:15:34</time>
      </trkpt>
      <trkpt lat="45.34148" lon="5.81664">
        <ele>890</ele>
        <time>2011-06-11T17:15:39</time>
      </trkpt>
      <trkpt lat="45.34142" lon="5.81677">
        <ele>890</ele>
        <time>2011-06-11T17:15:44</time>
      </trkpt>
      <trkpt lat="45.34139" lon="5.81687">
        <ele>890</ele>
        <time>2011-06-11T17:15:48</time>
      </trkpt>
      <trkpt lat="45.34133" lon="5.81697">
        <ele>890</ele>
        <time>2011-06-11T17:15:53</time>
      </trkpt>
      <trkpt lat="45.34132" lon="5.81705">
        <ele>890</ele>
        <time>2011-06-11T17:15:56</time>
      </trkpt>
      <trkpt lat="45.34138" lon="5.8172">
        <ele>896</ele>
        <time>2011-06-11T17:16:03</time>
      </trkpt>
    </trkseg>
  </trk>
</gpx>